Wetterdaten: Dienstag, 13.08.2019
Datum Zeit Temp. Aussen Temp. o. S. +5cm Feuchte Auss Luftdruck Regen Sonnenschein Regendauer Solar Windben Empfang
13.08.2019 00:00 13,1 C 11,7 C 11,7 C 96 % 1015,4 hPa 0,0 l/m 0 min 0 min 0 W/m 6,4 km/h (2 Bft) 100,00 %
13.08.2019 00:02 13,1 C 11,7 C 11,7 C 96 % 1015,4 hPa 0,0 l/m 0 min 0 min 0 W/m 0,0 km/h (0 Bft) 22,22 %
13.08.2019 00:04 13,0 C 11,7 C 11,7 C 96 % 1015,3 hPa 0,0 l/m 0 min 0 min 0 W/m 0,0 km/h (0 Bft) 63,89 %
13.08.2019 00:08 13,0 C 11,7 C 11,7 C 96 % 1015,4 hPa 0,0 l/m 0 min 0 min 0 W/m 3,2 km/h (1 Bft) 96,81 %
13.08.2019 00:10 13,0 C 11,7 C 11,7 C 96 % 1015,3 hPa 0,0 l/m 0 min 0 min 0 W/m 3,2 km/h (1 Bft) 97,87 %
13.08.2019 00:12 13,0 C 11,7 C 11,7 C 96 % 1015,3 hPa 0,0 l/m 0 min 0 min 0 W/m 3,2 km/h (1 Bft) 97,87 %
13.08.2019 00:14 12,9 C 11,7 C 11,7 C 97 % 1015,3 hPa 0,0 l/m 0 min 0 min 0 W/m 3,2 km/h (1 Bft) 97,83 %
13.08.2019 00:16 12,9 C 11,7 C 11,7 C 97 % 1015,3 hPa 0,0 l/m 0 min 0 min 0 W/m 6,4 km/h (2 Bft) 97,87 %
13.08.2019 00:18 12,9 C 11,7 C 11,7 C 97 % 1015,3 hPa 0,0 l/m 0 min 0 min 0 W/m 3,2 km/h (1 Bft) 97,87 %
13.08.2019 00:20 12,9 C 11,7 C 11,7 C 97 % 1015,2 hPa 0,0 l/m 0 min 0 min 0 W/m 6,4 km/h (2 Bft) 97,87 %
13.08.2019 00:22 12,9 C 11,7 C 11,7 C 97 % 1015,3 hPa 0,0 l/m 0 min 0 min 0 W/m 3,2 km/h (1 Bft) 97,87 %
13.08.2019 00:24 12,9 C 11,7 C 11,7 C 97 % 1015,3 hPa 0,0 l/m 0 min 0 min 0 W/m 0,0 km/h (0 Bft) 97,87 %
13.08.2019 00:26 12,9 C 11,7 C 11,7 C 97 % 1015,3 hPa 0,0 l/m 0 min 0 min 0 W/m 0,0 km/h (0 Bft) 95,65 %
13.08.2019 00:28 12,9 C 11,7 C 11,7 C 97 % 1015,3 hPa 0,0 l/m 0 min 0 min 0 W/m 0,0 km/h (0 Bft) 97,87 %
13.08.2019 00:30 12,9 C 11,7 C 11,7 C 97 % 1015,4 hPa 0,0 l/m 0 min 0 min 0 W/m 0,0 km/h (0 Bft) 93,62 %
13.08.2019 00:32 12,9 C 11,7 C 11,7 C 97 % 1015,4 hPa 0,0 l/m 0 min 0 min 0 W/m 0,0 km/h (0 Bft) 95,74 %
13.08.2019 00:34 12,9 C 11,7 C 11,7 C 97 % 1015,3 hPa 0,0 l/m 0 min 0 min 0 W/m 0,0 km/h (0 Bft) 95,74 %
13.08.2019 00:36 12,9 C 11,7 C 11,7 C 97 % 1015,3 hPa 0,0 l/m 0 min 0 min 0 W/m 3,2 km/h (1 Bft) 95,65 %
13.08.2019 00:38 12,9 C 11,7 C 11,7 C 97 % 1015,4 hPa 0,0 l/m 0 min 0 min 0 W/m 3,2 km/h (1 Bft) 91,49 %
13.08.2019 00:40 12,9 C 11,7 C 11,7 C 97 % 1015,3 hPa 0,0 l/m 0 min 0 min 0 W/m 0,0 km/h (0 Bft) 93,62 %
13.08.2019 00:42 12,8 C 11,7 C 11,7 C 97 % 1015,3 hPa 0,0 l/m 0 min 0 min 0 W/m 0,0 km/h (0 Bft) 95,74 %
13.08.2019 00:44 12,8 C 11,7 C 11,7 C 97 % 1015,2 hPa 0,0 l/m 0 min 0 min 0 W/m 0,0 km/h (0 Bft) 93,62 %
13.08.2019 00:46 12,8 C 11,7 C 11,7 C 97 % 1015,3 hPa 0,0 l/m 0 min 0 min 0 W/m 3,2 km/h (1 Bft) 95,74 %
13.08.2019 00:48 12,8 C 11,7 C 11,7 C 97 % 1015,2 hPa 0,0 l/m 0 min 0 min 0 W/m 0,0 km/h (0 Bft) 95,65 %
13.08.2019 00:50 12,8 C 11,7 C 11,7 C 97 % 1015,2 hPa 0,0 l/m 0 min 0 min 0 W/m 0,0 km/h (0 Bft) 95,74 %
13.08.2019 00:52 12,8 C 11,7 C 11,7 C 97 % 1015,1 hPa 0,0 l/m 0 min 0 min 0 W/m 3,2 km/h (1 Bft) 97,87 %
13.08.2019 00:54 12,8 C 11,7 C 11,7 C 97 % 1015,1 hPa 0,0 l/m 0 min 0 min 0 W/m 0,0 km/h (0 Bft) 95,74 %
13.08.2019 00:56 12,8 C 12,2 C 11,7 C 97 % 1015,0 hPa 0,0 l/m 0 min 0 min 0 W/m 3,2 km/h (1 Bft) 97,87 %
13.08.2019 00:58 12,9 C 12,2 C 11,7 C 97 % 1014,9 hPa 0,0 l/m 0 min 0 min 0 W/m 3,2 km/h (1 Bft) 93,62 %
13.08.2019 01:00 12,9 C 12,2 C 11,7 C 97 % 1015,1 hPa 0,0 l/m 0 min 2 min 0 W/m 3,2 km/h (1 Bft) 97,83 %
13.08.2019 01:02 12,8 C 11,7 C 11,7 C 97 % 1015,0 hPa 0,0 l/m 0 min 2 min 0 W/m 3,2 km/h (1 Bft) 97,87 %
13.08.2019 01:04 12,9 C 11,7 C 11,7 C 97 % 1015,0 hPa 0,0 l/m 0 min 2 min 0 W/m 3,2 km/h (1 Bft) 97,87 %
13.08.2019 01:06 12,9 C 11,7 C 11,7 C 97 % 1014,9 hPa 0,0 l/m 0 min 2 min 0 W/m 3,2 km/h (1 Bft) 97,87 %
13.08.2019 01:08 12,9 C 11,7 C 11,7 C 97 % 1014,9 hPa 0,0 l/m 0 min 2 min 0 W/m 6,4 km/h (2 Bft) 97,87 %
13.08.2019 01:10 12,9 C 11,7 C 11,7 C 97 % 1014,9 hPa 0,0 l/m 0 min 0 min 0 W/m 6,4 km/h (2 Bft) 95,74 %
13.08.2019 01:12 12,9 C 12,2 C 11,7 C 97 % 1014,9 hPa 0,0 l/m 0 min 0 min 0 W/m 0,0 km/h (0 Bft) 97,83 %
13.08.2019 01:14 12,9 C 12,2 C 11,7 C 97 % 1014,9 hPa 0,0 l/m 0 min 0 min 0 W/m 3,2 km/h (1 Bft) 97,87 %
13.08.2019 01:16 12,9 C 11,7 C 11,7 C 97 % 1015,0 hPa 0,0 l/m 0 min 0 min 0 W/m 3,2 km/h (1 Bft) 100,00 %
13.08.2019 01:18 12,9 C 11,7 C 11,7 C 97 % 1015,0 hPa 0,0 l/m 0 min 0 min 0 W/m 3,2 km/h (1 Bft) 97,87 %
13.08.2019 01:20 12,9 C 11,7 C 11,7 C 97 % 1015,1 hPa 0,0 l/m 0 min 0 min 0 W/m 0,0 km/h (0 Bft) 100,00 %
13.08.2019 01:22 12,9 C 11,7 C 11,7 C 97 % 1015,1 hPa 0,0 l/m 0 min 0 min 0 W/m 0,0 km/h (0 Bft) 100,00 %
13.08.2019 01:24 12,9 C 12,2 C 11,7 C 97 % 1015,1 hPa 0,0 l/m 0 min 0 min 0 W/m 0,0 km/h (0 Bft) 100,00 %
13.08.2019 01:26 12,9 C 11,7 C 11,7 C 97 % 1015,2 hPa 0,0 l/m 0 min 0 min 0 W/m 0,0 km/h (0 Bft) 97,87 %
13.08.2019 01:28 12,9 C 11,7 C 11,7 C 97 % 1015,2 hPa 0,0 l/m 0 min 0 min 0 W/m 0,0 km/h (0 Bft) 100,00 %
13.08.2019 01:30 12,9 C 11,7 C 11,7 C 97 % 1015,2 hPa 0,0 l/m 0 min 0 min 0 W/m 0,0 km/h (0 Bft) 97,87 %
13.08.2019 01:32 12,9 C 11,7 C 11,7 C 97 % 1015,2 hPa 0,0 l/m 0 min 0 min 0 W/m 0,0 km/h (0 Bft) 100,00 %
13.08.2019 01:34 12,9 C 11,7 C 11,7 C 97 % 1015,2 hPa 0,0 l/m 0 min 0 min 0 W/m 0,0 km/h (0 Bft) 97,87 %
13.08.2019 01:36 12,9 C 11,7 C 11,7 C 97 % 1015,2 hPa 0,0 l/m 0 min 0 min 0 W/m 0,0 km/h (0 Bft) 100,00 %
13.08.2019 01:38 12,9 C 11,7 C 11,7 C 97 % 1015,2 hPa 0,0 l/m 0 min 0 min 0 W/m 0,0 km/h (0 Bft) 100,00 %
13.08.2019 01:40 12,9 C 11,7 C 11,7 C 97 % 1015,2 hPa 0,0 l/m 0 min 0 min 0 W/m 0,0 km/h (0 Bft) 100,00 %
13.08.2019 01:42 12,9 C 12,2 C 11,7 C 97 % 1015,2 hPa 0,0 l/m 0 min 0 min 0 W/m 0,0 km/h (0 Bft) 100,00 %
13.08.2019 01:44 12,9 C 12,2 C 11,7 C 97 % 1015,1 hPa 0,0 l/m 0 min 0 min 0 W/m 3,2 km/h (1 Bft) 100,00 %
13.08.2019 01:46 12,9 C 12,2 C 11,7 C 97 % 1015,1 hPa 0,0 l/m 0 min 0 min 0 W/m 0,0 km/h (0 Bft) 95,74 %
13.08.2019 01:48 12,9 C 12,2 C 11,7 C 97 % 1015,1 hPa 0,0 l/m 0 min 0 min 0 W/m 0,0 km/h (0 Bft) 100,00 %
13.08.2019 01:50 12,9 C 12,2 C 11,7 C 97 % 1015,2 hPa 0,0 l/m 0 min 0 min 0 W/m 3,2 km/h (1 Bft) 100,00 %
13.08.2019 01:52 12,9 C 12,2 C 11,7 C 97 % 1015,2 hPa 0,0 l/m 0 min 0 min 0 W/m 3,2 km/h (1 Bft) 97,87 %
13.08.2019 01:54 12,9 C 12,2 C 11,7 C 97 % 1015,2 hPa 0,0 l/m 0 min 0 min 0 W/m 0,0 km/h (0 Bft) 97,87 %
13.08.2019 01:56 12,9 C 12,2 C 11,7 C 97 % 1015,2 hPa 0,0 l/m 0 min 0 min 0 W/m 3,2 km/h (1 Bft) 100,00 %
13.08.2019 01:58 13,0 C 12,2 C 11,7 C 97 % 1015,2 hPa 0,0 l/m 0 min 0 min 0 W/m 6,4 km/h (2 Bft) 100,00 %
13.08.2019 02:00 13,0 C 12,2 C 12,2 C 97 % 1015,2 hPa 0,0 l/m 0 min 2 min 0 W/m 3,2 km/h (1 Bft) 100,00 %
13.08.2019 02:02 13,0 C 12,2 C 12,2 C 97 % 1015,3 hPa 0,0 l/m 0 min 0 min 0 W/m 9,7 km/h (2 Bft) 100,00 %
13.08.2019 02:04 13,0 C 12,2 C 12,2 C 97 % 1015,3 hPa 0,0 l/m 0 min 0 min 0 W/m 3,2 km/h (1 Bft) 100,00 %
13.08.2019 02:06 13,1 C 12,2 C 12,2 C 97 % 1015,2 hPa 0,0 l/m 0 min 0 min 0 W/m 6,4 km/h (2 Bft) 100,00 %
13.08.2019 02:08 13,1 C 12,2 C 12,2 C 97 % 1015,2 hPa 0,0 l/m 0 min 0 min 0 W/m 6,4 km/h (2 Bft) 100,00 %
13.08.2019 02:10 13,1 C 12,2 C 12,2 C 97 % 1015,2 hPa 0,0 l/m 0 min 0 min 0 W/m 3,2 km/h (1 Bft) 100,00 %
13.08.2019 02:12 13,1 C 12,2 C 12,2 C 97 % 1015,2 hPa 0,0 l/m 0 min 0 min 0 W/m 6,4 km/h (2 Bft) 100,00 %
13.08.2019 02:14 13,1 C 12,2 C 12,2 C 97 % 1015,2 hPa 0,0 l/m 0 min 2 min 0 W/m 3,2 km/h (1 Bft) 100,00 %
13.08.2019 02:16 13,1 C 12,2 C 12,2 C 97 % 1015,2 hPa 0,0 l/m 0 min 2 min 0 W/m 3,2 km/h (1 Bft) 100,00 %
13.08.2019 02:18 13,1 C 12,2 C 11,7 C 97 % 1015,2 hPa 0,0 l/m 0 min 2 min 0 W/m 6,4 km/h (2 Bft) 100,00 %
13.08.2019 02:20 13,1 C 12,2 C 11,7 C 97 % 1015,2 hPa 0,0 l/m 0 min 0 min 0 W/m 9,7 km/h (2 Bft) 97,87 %
13.08.2019 02:22 13,1 C 12,2 C 11,7 C 97 % 1015,2 hPa 0,0 l/m 0 min 0 min 0 W/m 0,0 km/h (0 Bft) 100,00 %
13.08.2019 02:24 13,1 C 12,2 C 11,7 C 97 % 1015,2 hPa 0,0 l/m 0 min 0 min 0 W/m 0,0 km/h (0 Bft) 97,87 %
13.08.2019 02:26 13,1 C 12,2 C 11,7 C 97 % 1015,2 hPa 0,0 l/m 0 min 0 min 0 W/m 9,7 km/h (2 Bft) 97,87 %
13.08.2019 02:28 13,1 C 12,2 C 11,7 C 97 % 1015,2 hPa 0,0 l/m 0 min 0 min 0 W/m 0,0 km/h (0 Bft) 97,87 %
13.08.2019 02:30 13,1 C 12,2 C 11,7 C 97 % 1015,2 hPa 0,0 l/m 0 min 0 min 0 W/m 6,4 km/h (2 Bft) 97,87 %
13.08.2019 02:32 13,0 C 12,2 C 11,7 C 97 % 1015,2 hPa 0,0 l/m 0 min 0 min 0 W/m 3,2 km/h (1 Bft) 96,23 %
13.08.2019 02:34 13,0 C 12,2 C 11,7 C 97 % 1015,2 hPa 0,0 l/m 0 min 0 min 0 W/m 0,0 km/h (0 Bft) 95,74 %
13.08.2019 02:36 13,0 C 12,2 C 11,7 C 97 % 1015,2 hPa 0,0 l/m 0 min 0 min 0 W/m 0,0 km/h (0 Bft) 97,87 %
13.08.2019 02:38 13,0 C 12,2 C 11,7 C 97 % 1015,2 hPa 0,0 l/m 0 min 0 min 0 W/m 3,2 km/h (1 Bft) 97,87 %
13.08.2019 02:40 13,0 C 12,2 C 12,2 C 97 % 1015,2 hPa 0,0 l/m 0 min 0 min 0 W/m 6,4 km/h (2 Bft) 97,87 %
13.08.2019 02:42 13,0 C 12,2 C 11,7 C 97 % 1015,2 hPa 0,0 l/m 0 min 0 min 0 W/m 0,0 km/h (0 Bft) 93,48 %
13.08.2019 02:44 13,0 C 12,2 C 11,7 C 97 % 1015,2 hPa 0,0 l/m 0 min 0 min 0 W/m 3,2 km/h (1 Bft) 93,62 %
13.08.2019 02:46 13,0 C 12,2 C 11,7 C 97 % 1015,2 hPa 0,0 l/m 0 min 0 min 0 W/m 3,2 km/h (1 Bft) 95,74 %
13.08.2019 02:48 13,0 C 12,2 C 11,7 C 97 % 1015,2 hPa 0,0 l/m 0 min 0 min 0 W/m 3,2 km/h (1 Bft) 97,87 %
13.08.2019 02:50 12,9 C 12,2 C 11,7 C 97 % 1015,2 hPa 0,0 l/m 0 min 0 min 0 W/m 0,0 km/h (0 Bft) 93,62 %
13.08.2019 02:52 13,0 C 12,2 C 11,7 C 97 % 1015,1 hPa 0,0 l/m 0 min 0 min 0 W/m 0,0 km/h (0 Bft) 95,65 %
13.08.2019 02:54 13,0 C 12,2 C 11,7 C 97 % 1015,1 hPa 0,0 l/m 0 min 0 min 0 W/m 6,4 km/h (2 Bft) 97,87 %
13.08.2019 02:56 13,0 C 12,2 C 11,7 C 97 % 1015,2 hPa 0,0 l/m 0 min 0 min 0 W/m 6,4 km/h (2 Bft) 95,74 %
13.08.2019 02:58 13,0 C 12,2 C 11,7 C 97 % 1015,1 hPa 0,0 l/m 0 min 0 min 0 W/m 3,2 km/h (1 Bft) 95,74 %
13.08.2019 03:00 13,0 C 12,2 C 11,7 C 97 % 1015,2 hPa 0,0 l/m 0 min 0 min 0 W/m 3,2 km/h (1 Bft) 95,74 %
13.08.2019 03:02 12,9 C 12,2 C 11,7 C 97 % 1015,3 hPa 0,0 l/m 0 min 0 min 0 W/m 6,4 km/h (2 Bft) 93,62 %
13.08.2019 03:04 13,0 C 12,2 C 11,7 C 97 % 1015,3 hPa 0,0 l/m 0 min 0 min 0 W/m 3,2 km/h (1 Bft) 95,74 %
13.08.2019 03:06 13,0 C 12,2 C 11,7 C 97 % 1015,2 hPa 0,0 l/m 0 min 0 min 0 W/m 6,4 km/h (2 Bft) 93,48 %
13.08.2019 03:08 13,0 C 12,2 C 11,7 C 97 % 1015,2 hPa 0,0 l/m 0 min 0 min 0 W/m 6,4 km/h (2 Bft) 93,62 %
13.08.2019 03:10 13,0 C 12,2 C 12,2 C 97 % 1015,3 hPa 0,0 l/m 0 min 0 min 0 W/m 3,2 km/h (1 Bft) 91,49 %
13.08.2019 03:12 13,0 C 12,2 C 11,7 C 97 % 1015,2 hPa 0,0 l/m 0 min 0 min 0 W/m 6,4 km/h (2 Bft) 93,62 %
13.08.2019 03:14 13,0 C 12,2 C 12,2 C 97 % 1015,1 hPa 0,0 l/m 0 min 0 min 0 W/m 6,4 km/h (2 Bft) 89,36 %
13.08.2019 03:16 13,0 C 12,2 C 11,7 C 97 % 1015,2 hPa 0,0 l/m 0 min 0 min 0 W/m 3,2 km/h (1 Bft) 95,74 %
13.08.2019 03:18 13,0 C 12,2 C 11,7 C 97 % 1015,2 hPa 0,0 l/m 0 min 0 min 0 W/m 3,2 km/h (1 Bft) 89,13 %
13.08.2019 03:20 13,0 C 12,2 C 11,7 C 97 % 1015,3 hPa 0,0 l/m 0 min 0 min 0 W/m 3,2 km/h (1 Bft) 91,49 %
13.08.2019 03:22 13,0 C 12,2 C 12,2 C 97 % 1015,1 hPa 0,0 l/m 0 min 0 min 0 W/m 3,2 km/h (1 Bft) 95,74 %
13.08.2019 03:24 13,1 C 12,2 C 11,7 C 97 % 1015,2 hPa 0,0 l/m 0 min 0 min 0 W/m 6,4 km/h (2 Bft) 95,74 %
13.08.2019 03:26 13,1 C 12,2 C 11,7 C 97 % 1015,1 hPa 0,0 l/m 0 min 0 min 0 W/m 12,9 km/h (3 Bft) 95,74 %
13.08.2019 03:28 13,1 C 12,2 C 11,7 C 97 % 1015,1 hPa 0,0 l/m 0 min 0 min 0 W/m 6,4 km/h (2 Bft) 95,65 %
13.08.2019 03:30 13,0 C 12,2 C 11,7 C 97 % 1015,1 hPa 0,0 l/m 0 min 0 min 0 W/m 6,4 km/h (2 Bft) 95,74 %
13.08.2019 03:32 13,0 C 12,2 C 11,7 C 97 % 1015,1 hPa 0,0 l/m 0 min 0 min 0 W/m 6,4 km/h (2 Bft) 93,75 %
13.08.2019 03:34 13,0 C 12,2 C 11,7 C 97 % 1015,2 hPa 0,0 l/m 0 min 0 min 0 W/m 9,7 km/h (2 Bft) 95,74 %
13.08.2019 03:36 13,0 C 12,2 C 11,7 C 97 % 1015,2 hPa 0,0 l/m 0 min 0 min 0 W/m 3,2 km/h (1 Bft) 93,62 %
13.08.2019 03:38 13,0 C 11,7 C 11,7 C 97 % 1015,2 hPa 0,0 l/m 0 min 0 min 0 W/m 9,7 km/h (2 Bft) 95,74 %
13.08.2019 03:40 13,0 C 12,2 C 11,7 C 97 % 1015,2 hPa 0,0 l/m 0 min 0 min 0 W/m 9,7 km/h (2 Bft) 97,83 %
13.08.2019 03:42 12,9 C 11,7 C 11,7 C 97 % 1015,1 hPa 0,0 l/m 0 min 0 min 0 W/m 3,2 km/h (1 Bft) 93,62 %
13.08.2019 03:44 12,9 C 11,7 C 11,7 C 97 % 1015,1 hPa 0,0 l/m 0 min 0 min 0 W/m 6,4 km/h (2 Bft) 95,74 %
13.08.2019 03:46 12,9 C 11,7 C 11,7 C 97 % 1015,0 hPa 0,0 l/m 0 min 0 min 0 W/m 6,4 km/h (2 Bft) 97,87 %
13.08.2019 03:48 12,9 C 11,7 C 11,7 C 97 % 1015,1 hPa 0,0 l/m 0 min 0 min 0 W/m 3,2 km/h (1 Bft) 97,87 %
13.08.2019 03:50 12,9 C 11,7 C 11,7 C 97 % 1015,1 hPa 0,0 l/m 0 min 0 min 0 W/m 6,4 km/h (2 Bft) 100,00 %
13.08.2019 03:52 12,9 C 11,7 C 11,7 C 97 % 1015,1 hPa 0,0 l/m 0 min 0 min 0 W/m 9,7 km/h (2 Bft) 97,83 %
13.08.2019 03:54 12,9 C 11,7 C 11,7 C 97 % 1015,1 hPa 0,0 l/m 0 min 0 min 0 W/m 3,2 km/h (1 Bft) 100,00 %
13.08.2019 03:56 12,9 C 11,7 C 11,7 C 97 % 1015,1 hPa 0,0 l/m 0 min 0 min 0 W/m 0,0 km/h (0 Bft) 97,87 %
13.08.2019 03:58 12,9 C 11,7 C 11,7 C 97 % 1015,1 hPa 0,0 l/m 0 min 0 min 0 W/m 6,4 km/h (2 Bft) 100,00 %
13.08.2019 04:00 12,9 C 11,7 C 11,7 C 97 % 1015,1 hPa 0,0 l/m 0 min 0 min 0 W/m 12,9 km/h (3 Bft) 97,87 %
13.08.2019 04:05 12,9 C 12,2 C 11,7 C 97 % 1015,1 hPa 0,0 l/m 0 min 0 min 0 W/m 16,1 km/h (3 Bft) 98,41 %
13.08.2019 04:06 12,9 C 12,2 C 11,7 C 97 % 1015,1 hPa 0,0 l/m 0 min 0 min 0 W/m 16,1 km/h (3 Bft) 100,00 %
13.08.2019 04:08 12,9 C 12,2 C 11,7 C 97 % 1015,1 hPa 0,0 l/m 0 min 0 min 0 W/m 16,1 km/h (3 Bft) 100,00 %
13.08.2019 04:10 12,9 C 12,2 C 11,7 C 97 % 1015,1 hPa 0,0 l/m 0 min 0 min 0 W/m 12,9 km/h (3 Bft) 97,87 %
13.08.2019 04:12 12,9 C 12,2 C 11,7 C 97 % 1015,1 hPa 0,0 l/m 0 min 0 min 0 W/m 9,7 km/h (2 Bft) 95,74 %
13.08.2019 04:14 12,9 C 12,2 C 11,7 C 97 % 1015,1 hPa 0,0 l/m 0 min 0 min 0 W/m 12,9 km/h (3 Bft) 100,00 %
13.08.2019 04:16 12,9 C 12,2 C 11,7 C 97 % 1015,1 hPa 0,0 l/m 0 min 0 min 0 W/m 9,7 km/h (2 Bft) 100,00 %
13.08.2019 04:18 12,9 C 12,2 C 11,7 C 97 % 1015,1 hPa 0,0 l/m 0 min 0 min 0 W/m 9,7 km/h (2 Bft) 97,87 %
13.08.2019 04:20 12,9 C 12,2 C 11,7 C 97 % 1015,1 hPa 0,0 l/m 0 min 0 min 0 W/m 12,9 km/h (3 Bft) 100,00 %
13.08.2019 04:22 12,9 C 12,2 C 11,7 C 97 % 1015,1 hPa 0,0 l/m 0 min 0 min 0 W/m 12,9 km/h (3 Bft) 100,00 %
13.08.2019 04:24 12,9 C 12,2 C 11,7 C 97 % 1015,1 hPa 0,0 l/m 0 min 0 min 0 W/m 12,9 km/h (3 Bft) 100,00 %
13.08.2019 04:26 12,9 C 12,2 C 11,7 C 97 % 1015,2 hPa 0,0 l/m 0 min 0 min 0 W/m 16,1 km/h (3 Bft) 100,00 %
13.08.2019 04:28 12,9 C 12,2 C 11,7 C 97 % 1015,2 hPa 0,0 l/m 0 min 0 min 0 W/m 12,9 km/h (3 Bft) 100,00 %
13.08.2019 04:30 12,9 C 12,2 C 11,7 C 97 % 1015,1 hPa 0,0 l/m 0 min 0 min 0 W/m 12,9 km/h (3 Bft) 97,87 %
13.08.2019 04:32 12,9 C 12,2 C 11,7 C 97 % 1015,2 hPa 0,0 l/m 0 min 0 min 0 W/m 9,7 km/h (2 Bft) 100,00 %
13.08.2019 04:34 12,9 C 12,2 C 11,7 C 97 % 1015,2 hPa 0,0 l/m 0 min 0 min 0 W/m 16,1 km/h (3 Bft) 97,87 %
13.08.2019 04:36 12,9 C 12,2 C 11,7 C 97 % 1015,2 hPa 0,0 l/m 0 min 0 min 0 W/m 16,1 km/h (3 Bft) 100,00 %
13.08.2019 04:38 12,9 C 12,2 C 11,7 C 97 % 1015,4 hPa 0,0 l/m 0 min 0 min 0 W/m 19,3 km/h (3 Bft) 100,00 %
13.08.2019 04:40 12,9 C 12,2 C 11,7 C 97 % 1015,3 hPa 0,0 l/m 0 min 0 min 0 W/m 9,7 km/h (2 Bft) 97,87 %
13.08.2019 04:42 12,9 C 12,2 C 11,7 C 97 % 1015,4 hPa 0,0 l/m 0 min 0 min 0 W/m 12,9 km/h (3 Bft) 100,00 %
13.08.2019 04:44 12,9 C 11,7 C 11,7 C 97 % 1015,3 hPa 0,0 l/m 0 min 0 min 0 W/m 16,1 km/h (3 Bft) 93,62 %
13.08.2019 04:46 12,9 C 12,2 C 11,7 C 97 % 1015,3 hPa 0,0 l/m 0 min 0 min 0 W/m 12,9 km/h (3 Bft) 97,87 %
13.08.2019 04:48 12,9 C 12,2 C 11,7 C 97 % 1015,4 hPa 0,0 l/m 0 min 0 min 0 W/m 6,4 km/h (2 Bft) 100,00 %
13.08.2019 04:50 12,9 C 12,2 C 11,7 C 97 % 1015,4 hPa 0,0 l/m 0 min 0 min 0 W/m 12,9 km/h (3 Bft) 97,83 %
13.08.2019 04:52 12,9 C 12,2 C 11,7 C 97 % 1015,4 hPa 0,0 l/m 0 min 0 min 0 W/m 0,0 km/h (0 Bft) 100,00 %
13.08.2019 04:54 12,9 C 12,2 C 11,7 C 97 % 1015,4 hPa 0,0 l/m 0 min 0 min 0 W/m 9,7 km/h (2 Bft) 97,87 %
13.08.2019 04:56 12,9 C 12,2 C 11,7 C 97 % 1015,4 hPa 0,0 l/m 0 min 0 min 0 W/m 16,1 km/h (3 Bft) 100,00 %
13.08.2019 04:58 12,9 C 12,2 C 11,7 C 97 % 1015,4 hPa 0,0 l/m 0 min 0 min 0 W/m 9,7 km/h (2 Bft) 95,74 %
13.08.2019 05:00 12,9 C 11,7 C 11,7 C 97 % 1015,4 hPa 0,0 l/m 0 min 0 min 0 W/m 12,9 km/h (3 Bft) 97,87 %
13.08.2019 05:02 12,9 C 11,7 C 11,7 C 97 % 1015,4 hPa 0,0 l/m 0 min 0 min 0 W/m 9,7 km/h (2 Bft) 93,48 %
13.08.2019 05:04 12,9 C 11,7 C 11,7 C 97 % 1015,5 hPa 0,0 l/m 0 min 0 min 0 W/m 6,4 km/h (2 Bft) 97,87 %
13.08.2019 05:06 12,9 C 11,7 C 11,7 C 97 % 1015,4 hPa 0,0 l/m 0 min 0 min 0 W/m 9,7 km/h (2 Bft) 100,00 %
13.08.2019 05:08 12,9 C 11,7 C 11,7 C 97 % 1015,4 hPa 0,0 l/m 0 min 0 min 0 W/m 6,4 km/h (2 Bft) 97,87 %
13.08.2019 05:10 12,9 C 11,7 C 11,7 C 97 % 1015,4 hPa 0,0 l/m 0 min 0 min 0 W/m 9,7 km/h (2 Bft) 97,87 %
13.08.2019 05:12 12,9 C 11,7 C 11,7 C 97 % 1015,4 hPa 0,0 l/m 0 min 0 min 0 W/m 12,9 km/h (3 Bft) 100,00 %
13.08.2019 05:14 12,9 C 11,7 C 11,7 C 97 % 1015,4 hPa 0,0 l/m 0 min 0 min 0 W/m 6,4 km/h (2 Bft) 100,00 %
13.08.2019 05:16 12,8 C 11,7 C 11,7 C 97 % 1015,4 hPa 0,0 l/m 0 min 0 min 0 W/m 19,3 km/h (3 Bft) 95,74 %
13.08.2019 05:18 12,8 C 11,7 C 11,7 C 97 % 1015,5 hPa 0,0 l/m 0 min 0 min 0 W/m 16,1 km/h (3 Bft) 100,00 %
13.08.2019 05:20 12,8 C 11,7 C 11,1 C 97 % 1015,6 hPa 0,0 l/m 0 min 0 min 0 W/m 9,7 km/h (2 Bft) 100,00 %
13.08.2019 05:22 12,8 C 11,7 C 11,7 C 97 % 1015,5 hPa 0,0 l/m 0 min 0 min 0 W/m 9,7 km/h (2 Bft) 97,87 %
13.08.2019 05:24 12,8 C 11,7 C 11,7 C 97 % 1015,6 hPa 0,0 l/m 0 min 0 min 0 W/m 6,4 km/h (2 Bft) 100,00 %
13.08.2019 05:26 12,8 C 11,7 C 11,1 C 97 % 1015,6 hPa 0,0 l/m 0 min 0 min 0 W/m 16,1 km/h (3 Bft) 100,00 %
13.08.2019 05:28 12,8 C 11,7 C 11,1 C 97 % 1015,6 hPa 0,0 l/m 0 min 0 min 0 W/m 6,4 km/h (2 Bft) 97,87 %
13.08.2019 05:30 12,7 C 11,7 C 11,1 C 97 % 1015,6 hPa 0,0 l/m 0 min 0 min 0 W/m 9,7 km/h (2 Bft) 97,87 %
13.08.2019 05:32 12,7 C 11,7 C 11,7 C 97 % 1015,7 hPa 0,0 l/m 0 min 0 min 0 W/m 6,4 km/h (2 Bft) 100,00 %
13.08.2019 05:34 12,7 C 11,7 C 11,7 C 97 % 1015,6 hPa 0,0 l/m 0 min 0 min 0 W/m 3,2 km/h (1 Bft) 100,00 %
13.08.2019 05:36 12,7 C 11,7 C 11,7 C 97 % 1015,7 hPa 0,0 l/m 0 min 0 min 0 W/m 9,7 km/h (2 Bft) 97,83 %
13.08.2019 05:38 12,7 C 11,7 C 11,7 C 97 % 1015,7 hPa 0,0 l/m 0 min 0 min 0 W/m 6,4 km/h (2 Bft) 100,00 %
13.08.2019 05:40 12,7 C 11,7 C 11,7 C 97 % 1015,8 hPa 0,0 l/m 0 min 0 min 0 W/m 6,4 km/h (2 Bft) 100,00 %
13.08.2019 05:42 12,7 C 11,7 C 11,7 C 97 % 1015,8 hPa 0,0 l/m 0 min 0 min 0 W/m 9,7 km/h (2 Bft) 100,00 %
13.08.2019 05:44 12,7 C 11,7 C 11,7 C 97 % 1015,8 hPa 0,0 l/m 0 min 0 min 0 W/m 12,9 km/h (3 Bft) 100,00 %
13.08.2019 05:46 12,7 C 11,7 C 11,7 C 97 % 1015,8 hPa 0,0 l/m 0 min 0 min 0 W/m 6,4 km/h (2 Bft) 95,74 %
13.08.2019 05:48 12,7 C 11,7 C 11,7 C 97 % 1015,8 hPa 0,0 l/m 0 min 0 min 0 W/m 9,7 km/h (2 Bft) 95,65 %
13.08.2019 05:50 12,7 C 11,7 C 11,7 C 97 % 1015,8 hPa 0,0 l/m 0 min 0 min 0 W/m 9,7 km/h (2 Bft) 93,62 %
13.08.2019 05:52 12,7 C 11,7 C 11,7 C 97 % 1015,8 hPa 0,0 l/m 0 min 0 min 0 W/m 9,7 km/h (2 Bft) 93,62 %
13.08.2019 05:54 12,7 C 11,7 C 11,7 C 97 % 1015,9 hPa 0,0 l/m 0 min 0 min 0 W/m 6,4 km/h (2 Bft) 93,62 %
13.08.2019 05:56 12,7 C 11,7 C 11,7 C 97 % 1015,8 hPa 0,0 l/m 0 min 0 min 0 W/m 6,4 km/h (2 Bft) 91,49 %
13.08.2019 05:58 12,7 C 11,7 C 11,7 C 97 % 1015,8 hPa 0,0 l/m 0 min 0 min 0 W/m 6,4 km/h (2 Bft) 91,49 %
13.08.2019 06:00 12,7 C 11,7 C 11,7 C 97 % 1015,9 hPa 0,0 l/m 0 min 0 min 0 W/m 12,9 km/h (3 Bft) 93,48 %
13.08.2019 06:02 12,7 C 11,7 C 11,7 C 97 % 1015,8 hPa 0,0 l/m 0 min 0 min 0 W/m 3,2 km/h (1 Bft) 93,62 %
13.08.2019 06:04 12,7 C 11,7 C 11,7 C 97 % 1015,9 hPa 0,0 l/m 0 min 0 min 0 W/m 3,2 km/h (1 Bft) 89,36 %
13.08.2019 06:08 12,7 C 11,7 C 11,7 C 97 % 1015,9 hPa 0,0 l/m 0 min 0 min 0 W/m 6,4 km/h (2 Bft) 92,55 %
13.08.2019 06:10 12,8 C 11,7 C 11,7 C 97 % 1015,9 hPa 0,0 l/m 0 min 0 min 0 W/m 3,2 km/h (1 Bft) 93,48 %
13.08.2019 06:12 12,7 C 11,7 C 11,7 C 97 % 1016,0 hPa 0,0 l/m 0 min 0 min 0 W/m 6,4 km/h (2 Bft) 95,74 %
13.08.2019 06:14 12,7 C 11,7 C 11,7 C 97 % 1015,9 hPa 0,0 l/m 0 min 0 min 0 W/m 9,7 km/h (2 Bft) 91,49 %
13.08.2019 06:16 12,8 C 11,7 C 11,7 C 97 % 1015,9 hPa 0,0 l/m 0 min 0 min 0 W/m 6,4 km/h (2 Bft) 93,62 %
13.08.2019 06:18 12,7 C 11,7 C 11,7 C 97 % 1016,0 hPa 0,0 l/m 0 min 0 min 0 W/m 3,2 km/h (1 Bft) 93,62 %
13.08.2019 06:20 12,7 C 11,7 C 11,7 C 97 % 1016,0 hPa 0,0 l/m 0 min 0 min 0 W/m 9,7 km/h (2 Bft) 93,62 %
13.08.2019 06:22 12,7 C 11,7 C 11,7 C 97 % 1016,0 hPa 0,0 l/m 0 min 0 min 0 W/m 6,4 km/h (2 Bft) 93,48 %
13.08.2019 06:24 12,7 C 11,7 C 11,7 C 97 % 1016,1 hPa 0,0 l/m 0 min 0 min 0 W/m 0,0 km/h (0 Bft) 87,23 %
13.08.2019 06:26 12,7 C 11,7 C 11,7 C 97 % 1016,0 hPa 0,0 l/m 0 min 0 min 0 W/m 9,7 km/h (2 Bft) 93,62 %
13.08.2019 06:28 12,7 C 11,7 C 11,7 C 97 % 1016,1 hPa 0,0 l/m 0 min 0 min 2 W/m 6,4 km/h (2 Bft) 93,62 %
13.08.2019 06:30 12,7 C 11,7 C 11,7 C 97 % 1016,1 hPa 0,0 l/m 0 min 0 min 5 W/m 6,4 km/h (2 Bft) 95,74 %
13.08.2019 06:32 12,7 C 11,7 C 11,7 C 97 % 1016,1 hPa 0,0 l/m 0 min 0 min 5 W/m 12,9 km/h (3 Bft) 95,74 %
13.08.2019 06:34 12,8 C 11,7 C 11,7 C 97 % 1016,2 hPa 0,0 l/m 0 min 0 min 5 W/m 6,4 km/h (2 Bft) 97,83 %
13.08.2019 06:36 12,8 C 11,7 C 11,7 C 97 % 1016,2 hPa 0,0 l/m 0 min 0 min 5 W/m 3,2 km/h (1 Bft) 97,87 %
13.08.2019 06:38 12,8 C 12,2 C 11,7 C 97 % 1016,3 hPa 0,0 l/m 0 min 0 min 5 W/m 9,7 km/h (2 Bft) 97,87 %
13.08.2019 06:40 12,8 C 12,2 C 11,7 C 97 % 1016,3 hPa 0,0 l/m 0 min 0 min 5 W/m 3,2 km/h (1 Bft) 97,87 %
13.08.2019 06:42 12,8 C 12,2 C 11,7 C 97 % 1016,3 hPa 0,0 l/m 0 min 0 min 3 W/m 9,7 km/h (2 Bft) 97,87 %
13.08.2019 06:44 12,8 C 12,2 C 11,7 C 97 % 1016,3 hPa 0,0 l/m 0 min 0 min 5 W/m 9,7 km/h (2 Bft) 97,87 %
13.08.2019 06:46 12,8 C 12,2 C 12,2 C 97 % 1016,4 hPa 0,0 l/m 0 min 0 min 7 W/m 9,7 km/h (2 Bft) 97,83 %
13.08.2019 06:48 12,8 C 12,2 C 12,2 C 97 % 1016,3 hPa 0,0 l/m 0 min 0 min 9 W/m 3,2 km/h (1 Bft) 95,74 %
13.08.2019 06:50 12,8 C 12,2 C 12,2 C 97 % 1016,3 hPa 0,0 l/m 0 min 0 min 9 W/m 9,7 km/h (2 Bft) 100,00 %
13.08.2019 06:52 12,8 C 12,2 C 12,2 C 97 % 1016,3 hPa 0,0 l/m 0 min 0 min 10 W/m 6,4 km/h (2 Bft) 100,00 %
13.08.2019 06:54 12,8 C 12,2 C 12,2 C 97 % 1016,3 hPa 0,0 l/m 0 min 0 min 12 W/m 0,0 km/h (0 Bft) 100,00 %
13.08.2019 06:56 12,8 C 12,2 C 12,2 C 97 % 1016,4 hPa 0,0 l/m 0 min 0 min 15 W/m 0,0 km/h (0 Bft) 97,87 %
13.08.2019 06:58 12,8 C 12,2 C 11,7 C 97 % 1016,4 hPa 0,0 l/m 0 min 0 min 16 W/m 0,0 km/h (0 Bft) 97,83 %
13.08.2019 07:00 12,8 C 12,2 C 11,7 C 97 % 1016,4 hPa 0,0 l/m 0 min 0 min 18 W/m 6,4 km/h (2 Bft) 97,87 %
13.08.2019 07:02 12,8 C 11,7 C 11,7 C 97 % 1016,3 hPa 0,0 l/m 0 min 0 min 18 W/m 6,4 km/h (2 Bft) 100,00 %
13.08.2019 07:04 12,8 C 11,7 C 11,7 C 97 % 1016,3 hPa 0,0 l/m 0 min 0 min 19 W/m 9,7 km/h (2 Bft) 100,00 %
13.08.2019 07:06 12,8 C 11,7 C 11,7 C 97 % 1016,4 hPa 0,0 l/m 0 min 0 min 21 W/m 9,7 km/h (2 Bft) 100,00 %
13.08.2019 07:08 12,8 C 11,7 C 11,7 C 97 % 1016,5 hPa 0,0 l/m 0 min 0 min 23 W/m 9,7 km/h (2 Bft) 100,00 %
13.08.2019 07:10 12,8 C 11,7 C 11,7 C 97 % 1016,5 hPa 0,0 l/m 0 min 0 min 25 W/m 9,7 km/h (2 Bft) 97,87 %
13.08.2019 07:12 12,8 C 11,7 C 11,7 C 97 % 1016,5 hPa 0,0 l/m 0 min 0 min 27 W/m 3,2 km/h (1 Bft) 97,87 %
13.08.2019 07:14 12,8 C 12,2 C 11,7 C 97 % 1016,5 hPa 0,0 l/m 0 min 0 min 31 W/m 9,7 km/h (2 Bft) 100,00 %
13.08.2019 07:16 12,8 C 12,2 C 11,7 C 97 % 1016,5 hPa 0,0 l/m 0 min 0 min 37 W/m 0,0 km/h (0 Bft) 100,00 %
13.08.2019 07:18 12,8 C 12,2 C 11,7 C 97 % 1016,6 hPa 0,0 l/m 0 min 0 min 46 W/m 0,0 km/h (0 Bft) 100,00 %
13.08.2019 07:20 12,8 C 12,2 C 12,2 C 97 % 1016,6 hPa 0,0 l/m 0 min 0 min 54 W/m 3,2 km/h (1 Bft) 97,83 %
13.08.2019 07:22 12,8 C 12,2 C 12,2 C 97 % 1016,6 hPa 0,0 l/m 0 min 0 min 56 W/m 3,2 km/h (1 Bft) 100,00 %
13.08.2019 07:24 12,8 C 12,8 C 12,2 C 97 % 1016,6 hPa 0,0 l/m 0 min 0 min 56 W/m 3,2 km/h (1 Bft) 100,00 %
13.08.2019 07:26 12,8 C 12,8 C 12,2 C 97 % 1016,6 hPa 0,0 l/m 0 min 0 min 65 W/m 0,0 km/h (0 Bft) 100,00 %
13.08.2019 07:28 12,8 C 12,8 C 12,2 C 97 % 1016,6 hPa 0,0 l/m 0 min 0 min 63 W/m 9,7 km/h (2 Bft) 100,00 %
13.08.2019 07:30 12,8 C 12,8 C 12,2 C 97 % 1016,7 hPa 0,0 l/m 0 min 0 min 57 W/m 6,4 km/h (2 Bft) 100,00 %
13.08.2019 07:32 12,9 C 12,8 C 12,2 C 97 % 1016,7 hPa 0,0 l/m 0 min 0 min 55 W/m 6,4 km/h (2 Bft) 97,87 %
13.08.2019 07:34 12,9 C 12,8 C 12,2 C 97 % 1016,7 hPa 0,0 l/m 0 min 0 min 65 W/m 3,2 km/h (1 Bft) 100,00 %
13.08.2019 07:36 12,9 C 12,8 C 12,2 C 97 % 1016,7 hPa 0,0 l/m 0 min 0 min 59 W/m 6,4 km/h (2 Bft) 100,00 %
13.08.2019 07:38 12,9 C 12,8 C 12,2 C 97 % 1016,7 hPa 0,0 l/m 0 min 0 min 64 W/m 3,2 km/h (1 Bft) 100,00 %
13.08.2019 07:40 12,9 C 12,8 C 12,2 C 97 % 1016,7 hPa 0,0 l/m 0 min 0 min 65 W/m 6,4 km/h (2 Bft) 100,00 %
13.08.2019 07:42 12,9 C 12,8 C 12,2 C 97 % 1016,7 hPa 0,0 l/m 0 min 0 min 65 W/m 3,2 km/h (1 Bft) 100,00 %
13.08.2019 07:44 12,9 C 12,8 C 12,2 C 97 % 1016,7 hPa 0,0 l/m 0 min 0 min 65 W/m 6,4 km/h (2 Bft) 100,00 %
13.08.2019 07:46 13,0 C 12,8 C 12,2 C 97 % 1016,7 hPa 0,0 l/m 0 min 0 min 77 W/m 3,2 km/h (1 Bft) 100,00 %
13.08.2019 07:48 13,0 C 13,3 C 12,8 C 97 % 1016,7 hPa 0,0 l/m 0 min 0 min 94 W/m 0,0 km/h (0 Bft) 100,00 %
13.08.2019 07:50 13,0 C 13,3 C 12,8 C 97 % 1016,7 hPa 0,0 l/m 0 min 0 min 102 W/m 9,7 km/h (2 Bft) 100,00 %
13.08.2019 07:52 13,1 C 13,3 C 12,8 C 97 % 1016,8 hPa 0,0 l/m 0 min 0 min 100 W/m 3,2 km/h (1 Bft) 100,00 %
13.08.2019 07:54 13,1 C 13,3 C 12,8 C 97 % 1016,8 hPa 0,0 l/m 0 min 0 min 67 W/m 6,4 km/h (2 Bft) 100,00 %
13.08.2019 07:56 13,1 C 13,3 C 12,8 C 97 % 1016,9 hPa 0,0 l/m 0 min 0 min 53 W/m 3,2 km/h (1 Bft) 100,00 %
13.08.2019 07:58 13,1 C 12,8 C 12,8 C 97 % 1016,9 hPa 0,0 l/m 0 min 0 min 54 W/m 6,4 km/h (2 Bft) 100,00 %
13.08.2019 08:00 13,2 C 12,8 C 12,8 C 97 % 1016,9 hPa 0,0 l/m 0 min 0 min 62 W/m 9,7 km/h (2 Bft) 100,00 %
13.08.2019 08:02 13,2 C 13,3 C 12,8 C 97 % 1016,9 hPa 0,0 l/m 0 min 0 min 71 W/m 3,2 km/h (1 Bft) 95,74 %
13.08.2019 08:04 13,2 C 12,8 C 12,8 C 97 % 1017,0 hPa 0,0 l/m 0 min 0 min 66 W/m 9,7 km/h (2 Bft) 100,00 %
13.08.2019 08:06 13,2 C 13,3 C 12,8 C 97 % 1017,0 hPa 0,0 l/m 0 min 0 min 74 W/m 6,4 km/h (2 Bft) 100,00 %
13.08.2019 08:08 13,2 C 13,3 C 12,8 C 97 % 1017,0 hPa 0,0 l/m 0 min 0 min 75 W/m 9,7 km/h (2 Bft) 100,00 %
13.08.2019 08:10 13,2 C 13,3 C 12,8 C 97 % 1017,0 hPa 0,0 l/m 0 min 0 min 85 W/m 3,2 km/h (1 Bft) 100,00 %
13.08.2019 08:12 13,2 C 13,3 C 12,8 C 97 % 1017,0 hPa 0,0 l/m 0 min 0 min 87 W/m 9,7 km/h (2 Bft) 100,00 %
13.08.2019 08:14 13,2 C 13,9 C 12,8 C 97 % 1017,0 hPa 0,0 l/m 0 min 0 min 107 W/m 6,4 km/h (2 Bft) 100,00 %
13.08.2019 08:16 13,2 C 13,9 C 12,8 C 97 % 1017,1 hPa 0,0 l/m 0 min 0 min 108 W/m 16,1 km/h (3 Bft) 100,00 %
13.08.2019 08:18 13,2 C 13,9 C 12,8 C 97 % 1017,1 hPa 0,0 l/m 0 min 0 min 117 W/m 12,9 km/h (3 Bft) 100,00 %
13.08.2019 08:20 13,2 C 13,9 C 13,3 C 97 % 1017,1 hPa 0,0 l/m 0 min 0 min 119 W/m 19,3 km/h (3 Bft) 97,87 %
13.08.2019 08:22 13,3 C 13,9 C 13,3 C 97 % 1017,1 hPa 0,0 l/m 0 min 0 min 118 W/m 16,1 km/h (3 Bft) 95,74 %
13.08.2019 08:24 13,3 C 13,9 C 13,3 C 97 % 1017,1 hPa 0,0 l/m 0 min 0 min 102 W/m 16,1 km/h (3 Bft) 97,87 %
13.08.2019 08:26 13,3 C 13,9 C 13,3 C 97 % 1017,1 hPa 0,0 l/m 0 min 0 min 86 W/m 6,4 km/h (2 Bft) 91,49 %
13.08.2019 08:28 13,3 C 13,9 C 13,3 C 97 % 1017,1 hPa 0,0 l/m 0 min 0 min 84 W/m 9,7 km/h (2 Bft) 97,87 %
13.08.2019 08:30 13,3 C 13,9 C 12,8 C 97 % 1017,1 hPa 0,0 l/m 0 min 0 min 74 W/m 9,7 km/h (2 Bft) 97,83 %
13.08.2019 08:32 13,4 C 13,9 C 12,8 C 97 % 1017,2 hPa 0,0 l/m 0 min 0 min 71 W/m 16,1 km/h (3 Bft) 91,67 %
13.08.2019 08:34 13,4 C 13,9 C 12,8 C 97 % 1017,3 hPa 0,0 l/m 0 min 0 min 76 W/m 9,7 km/h (2 Bft) 95,74 %
13.08.2019 08:36 13,4 C 13,9 C 12,8 C 97 % 1017,3 hPa 0,0 l/m 0 min 0 min 128 W/m 12,9 km/h (3 Bft) 95,74 %
13.08.2019 08:38 13,4 C 13,9 C 12,8 C 97 % 1017,3 hPa 0,0 l/m 2 min 0 min 171 W/m 9,7 km/h (2 Bft) 97,87 %
13.08.2019 08:40 13,4 C 14,4 C 12,8 C 97 % 1017,3 hPa 0,0 l/m 2 min 0 min 197 W/m 6,4 km/h (2 Bft) 97,87 %
13.08.2019 08:42 13,4 C 16,1 C 12,8 C 97 % 1017,3 hPa 0,0 l/m 2 min 0 min 210 W/m 6,4 km/h (2 Bft) 93,48 %
13.08.2019 08:44 13,4 C 16,7 C 12,8 C 97 % 1017,3 hPa 0,0 l/m 2 min 0 min 242 W/m 9,7 km/h (2 Bft) 95,74 %
13.08.2019 08:46 13,4 C 16,1 C 12,8 C 97 % 1017,3 hPa 0,0 l/m 2 min 0 min 264 W/m 22,5 km/h (4 Bft) 97,87 %
13.08.2019 08:48 13,4 C 15,6 C 12,8 C 96 % 1017,3 hPa 0,0 l/m 2 min 0 min 278 W/m 6,4 km/h (2 Bft) 93,62 %
13.08.2019 08:50 13,5 C 15,6 C 12,8 C 96 % 1017,2 hPa 0,0 l/m 2 min 0 min 293 W/m 12,9 km/h (3 Bft) 95,74 %
13.08.2019 08:52 13,6 C 16,7 C 13,3 C 96 % 1017,3 hPa 0,0 l/m 2 min 0 min 305 W/m 9,7 km/h (2 Bft) 95,65 %
13.08.2019 08:54 13,6 C 17,2 C 13,3 C 97 % 1017,3 hPa 0,0 l/m 2 min 0 min 314 W/m 9,7 km/h (2 Bft) 95,74 %
13.08.2019 08:56 13,7 C 17,2 C 13,3 C 97 % 1017,3 hPa 0,0 l/m 2 min 0 min 315 W/m 19,3 km/h (3 Bft) 95,74 %
13.08.2019 08:58 13,7 C 17,2 C 13,3 C 97 % 1017,3 hPa 0,0 l/m 2 min 0 min 319 W/m 16,1 km/h (3 Bft) 93,62 %
13.08.2019 09:00 13,8 C 17,8 C 13,3 C 96 % 1017,3 hPa 0,0 l/m 2 min 0 min 326 W/m 16,1 km/h (3 Bft) 93,62 %
13.08.2019 09:02 13,9 C 18,3 C 13,9 C 96 % 1017,3 hPa 0,0 l/m 2 min 0 min 335 W/m 12,9 km/h (3 Bft) 97,87 %
13.08.2019 09:04 13,9 C 18,3 C 13,9 C 96 % 1017,3 hPa 0,0 l/m 2 min 0 min 341 W/m 9,7 km/h (2 Bft) 97,83 %
13.08.2019 09:06 14,1 C 18,3 C 15,0 C 96 % 1017,4 hPa 0,0 l/m 2 min 0 min 348 W/m 12,9 km/h (3 Bft) 95,74 %
13.08.2019 09:08 14,2 C 18,3 C 16,7 C 96 % 1017,4 hPa 0,0 l/m 2 min 0 min 359 W/m 12,9 km/h (3 Bft) 95,74 %
13.08.2019 09:10 14,2 C 17,8 C 17,2 C 96 % 1017,4 hPa 0,0 l/m 2 min 0 min 368 W/m 12,9 km/h (3 Bft) 97,87 %
13.08.2019 09:12 14,2 C 18,3 C 17,8 C 96 % 1017,4 hPa 0,0 l/m 2 min 0 min 376 W/m 12,9 km/h (3 Bft) 95,74 %
13.08.2019 09:14 14,2 C 18,3 C 18,3 C 96 % 1017,4 hPa 0,0 l/m 2 min 0 min 383 W/m 9,7 km/h (2 Bft) 95,74 %
13.08.2019 09:16 14,4 C 18,9 C 18,9 C 95 % 1017,5 hPa 0,0 l/m 2 min 0 min 389 W/m 12,9 km/h (3 Bft) 95,65 %
13.08.2019 09:18 14,4 C 18,9 C 18,9 C 95 % 1017,4 hPa 0,0 l/m 2 min 0 min 394 W/m 16,1 km/h (3 Bft) 95,74 %
13.08.2019 09:20 14,5 C 18,9 C 18,3 C 95 % 1017,5 hPa 0,0 l/m 2 min 0 min 400 W/m 9,7 km/h (2 Bft) 93,62 %
13.08.2019 09:22 14,6 C 19,4 C 18,9 C 94 % 1017,5 hPa 0,0 l/m 2 min 0 min 404 W/m 9,7 km/h (2 Bft) 95,74 %
13.08.2019 09:24 14,7 C 19,4 C 18,9 C 94 % 1017,6 hPa 0,0 l/m 2 min 0 min 408 W/m 9,7 km/h (2 Bft) 95,74 %
13.08.2019 09:26 14,8 C 19,4 C 18,9 C 94 % 1017,5 hPa 0,0 l/m 2 min 0 min 425 W/m 16,1 km/h (3 Bft) 93,62 %
13.08.2019 09:28 14,9 C 18,9 C 18,9 C 93 % 1017,5 hPa 0,0 l/m 2 min 0 min 433 W/m 16,1 km/h (3 Bft) 95,65 %
13.08.2019 09:30 15,0 C 18,9 C 18,9 C 92 % 1017,6 hPa 0,0 l/m 2 min 0 min 435 W/m 16,1 km/h (3 Bft) 95,74 %
13.08.2019 09:32 15,1 C 19,4 C 18,9 C 91 % 1017,5 hPa 0,0 l/m 2 min 0 min 442 W/m 6,4 km/h (2 Bft) 95,83 %
13.08.2019 09:34 15,2 C 19,4 C 19,4 C 91 % 1017,6 hPa 0,0 l/m 2 min 0 min 449 W/m 12,9 km/h (3 Bft) 95,74 %
13.08.2019 09:36 15,3 C 20,0 C 20,0 C 90 % 1017,5 hPa 0,0 l/m 2 min 0 min 453 W/m 16,1 km/h (3 Bft) 95,74 %
13.08.2019 09:38 15,4 C 18,9 C 18,9 C 90 % 1017,5 hPa 0,0 l/m 2 min 0 min 459 W/m 19,3 km/h (3 Bft) 95,74 %
13.08.2019 09:40 15,5 C 18,9 C 18,9 C 88 % 1017,6 hPa 0,0 l/m 2 min 0 min 464 W/m 16,1 km/h (3 Bft) 95,65 %
13.08.2019 09:42 15,5 C 19,4 C 19,4 C 87 % 1017,5 hPa 0,0 l/m 2 min 0 min 471 W/m 19,3 km/h (3 Bft) 95,74 %
13.08.2019 09:44 15,6 C 20,0 C 20,0 C 87 % 1017,5 hPa 0,0 l/m 2 min 0 min 475 W/m 9,7 km/h (2 Bft) 95,74 %
13.08.2019 09:46 15,7 C 20,0 C 20,0 C 86 % 1017,6 hPa 0,0 l/m 2 min 0 min 482 W/m 16,1 km/h (3 Bft) 93,62 %
13.08.2019 09:48 15,8 C 20,6 C 20,6 C 87 % 1017,6 hPa 0,0 l/m 2 min 0 min 483 W/m 12,9 km/h (3 Bft) 95,74 %
13.08.2019 09:50 16,0 C 21,1 C 21,1 C 87 % 1017,6 hPa 0,0 l/m 2 min 0 min 489 W/m 9,7 km/h (2 Bft) 93,48 %
13.08.2019 09:52 16,1 C 20,0 C 20,6 C 86 % 1017,6 hPa 0,0 l/m 2 min 0 min 495 W/m 12,9 km/h (3 Bft) 97,87 %
13.08.2019 09:54 16,2 C 20,6 C 20,6 C 85 % 1017,7 hPa 0,0 l/m 2 min 0 min 497 W/m 6,4 km/h (2 Bft) 97,87 %
13.08.2019 09:56 16,2 C 21,1 C 21,1 C 85 % 1017,7 hPa 0,0 l/m 2 min 0 min 502 W/m 16,1 km/h (3 Bft) 97,87 %
13.08.2019 09:58 16,3 C 20,6 C 20,6 C 84 % 1017,7 hPa 0,0 l/m 2 min 0 min 512 W/m 16,1 km/h (3 Bft) 95,74 %
13.08.2019 10:00 16,4 C 20,6 C 20,6 C 84 % 1017,7 hPa 0,0 l/m 2 min 0 min 524 W/m 12,9 km/h (3 Bft) 97,87 %
13.08.2019 10:02 16,5 C 20,6 C 20,6 C 84 % 1017,7 hPa 0,0 l/m 2 min 0 min 513 W/m 9,7 km/h (2 Bft) 97,83 %
13.08.2019 10:04 16,6 C 20,6 C 21,1 C 83 % 1017,7 hPa 0,0 l/m 2 min 0 min 527 W/m 6,4 km/h (2 Bft) 97,87 %
13.08.2019 10:06 16,7 C 21,1 C 21,7 C 84 % 1017,6 hPa 0,0 l/m 2 min 0 min 533 W/m 9,7 km/h (2 Bft) 97,87 %
13.08.2019 10:08 16,7 C 21,1 C 21,1 C 83 % 1017,7 hPa 0,0 l/m 2 min 0 min 538 W/m 16,1 km/h (3 Bft) 97,87 %
13.08.2019 10:10 16,8 C 21,1 C 21,7 C 83 % 1017,7 hPa 0,0 l/m 2 min 0 min 561 W/m 6,4 km/h (2 Bft) 97,87 %
13.08.2019 10:12 16,9 C 20,0 C 20,0 C 83 % 1017,7 hPa 0,0 l/m 2 min 0 min 570 W/m 16,1 km/h (3 Bft) 95,74 %
13.08.2019 10:14 17,0 C 21,1 C 21,7 C 82 % 1017,7 hPa 0,0 l/m 2 min 0 min 562 W/m 16,1 km/h (3 Bft) 97,83 %
13.08.2019 10:16 17,1 C 21,7 C 21,7 C 82 % 1017,7 hPa 0,0 l/m 2 min 0 min 572 W/m 12,9 km/h (3 Bft) 97,87 %
13.08.2019 10:18 17,1 C 21,7 C 21,7 C 82 % 1017,7 hPa 0,0 l/m 2 min 0 min 567 W/m 19,3 km/h (3 Bft) 97,87 %
13.08.2019 10:20 17,2 C 21,1 C 21,1 C 81 % 1017,7 hPa 0,0 l/m 2 min 0 min 572 W/m 16,1 km/h (3 Bft) 100,00 %
13.08.2019 10:22 17,2 C 21,1 C 21,1 C 80 % 1017,7 hPa 0,0 l/m 2 min 0 min 583 W/m 12,9 km/h (3 Bft) 97,87 %
13.08.2019 10:24 17,2 C 21,1 C 21,7 C 80 % 1017,7 hPa 0,0 l/m 2 min 0 min 587 W/m 16,1 km/h (3 Bft) 100,00 %
13.08.2019 10:26 17,3 C 20,6 C 21,1 C 79 % 1017,8 hPa 0,0 l/m 2 min 0 min 591 W/m 16,1 km/h (3 Bft) 100,00 %
13.08.2019 10:28 17,3 C 21,7 C 21,7 C 80 % 1017,7 hPa 0,0 l/m 2 min 0 min 594 W/m 12,9 km/h (3 Bft) 100,00 %
13.08.2019 10:30 17,4 C 22,2 C 21,7 C 80 % 1017,7 hPa 0,0 l/m 2 min 0 min 598 W/m 6,4 km/h (2 Bft) 100,00 %
13.08.2019 10:32 17,5 C 22,8 C 22,2 C 81 % 1017,8 hPa 0,0 l/m 2 min 0 min 603 W/m 9,7 km/h (2 Bft) 97,87 %
13.08.2019 10:34 17,6 C 22,8 C 22,8 C 81 % 1017,8 hPa 0,0 l/m 2 min 0 min 619 W/m 9,7 km/h (2 Bft) 100,00 %
13.08.2019 10:36 17,7 C 22,2 C 22,8 C 80 % 1017,8 hPa 0,0 l/m 2 min 0 min 609 W/m 9,7 km/h (2 Bft) 100,00 %
13.08.2019 10:38 17,8 C 22,2 C 22,8 C 80 % 1017,8 hPa 0,0 l/m 2 min 0 min 614 W/m 9,7 km/h (2 Bft) 97,83 %
13.08.2019 10:40 17,8 C 22,2 C 22,2 C 79 % 1017,8 hPa 0,0 l/m 2 min 0 min 624 W/m 9,7 km/h (2 Bft) 97,87 %
13.08.2019 10:42 17,9 C 21,7 C 22,2 C 79 % 1017,8 hPa 0,0 l/m 2 min 0 min 629 W/m 9,7 km/h (2 Bft) 97,87 %
13.08.2019 10:44 17,9 C 22,8 C 22,8 C 79 % 1017,9 hPa 0,0 l/m 2 min 0 min 628 W/m 12,9 km/h (3 Bft) 95,74 %
13.08.2019 10:46 18,0 C 22,8 C 23,3 C 79 % 1017,8 hPa 0,0 l/m 2 min 0 min 642 W/m 6,4 km/h (2 Bft) 97,87 %
13.08.2019 10:48 18,1 C 22,8 C 23,3 C 79 % 1017,8 hPa 0,0 l/m 2 min 0 min 646 W/m 16,1 km/h (3 Bft) 97,83 %
13.08.2019 10:50 18,1 C 22,2 C 23,3 C 78 % 1017,8 hPa 0,0 l/m 2 min 0 min 651 W/m 12,9 km/h (3 Bft) 97,87 %
13.08.2019 10:52 18,2 C 22,8 C 23,3 C 78 % 1017,9 hPa 0,0 l/m 2 min 0 min 664 W/m 16,1 km/h (3 Bft) 93,62 %
13.08.2019 10:54 18,2 C 22,8 C 23,3 C 78 % 1017,9 hPa 0,0 l/m 2 min 0 min 661 W/m 16,1 km/h (3 Bft) 97,87 %
13.08.2019 10:56 18,3 C 23,3 C 23,3 C 78 % 1017,8 hPa 0,0 l/m 2 min 0 min 670 W/m 9,7 km/h (2 Bft) 97,87 %
13.08.2019 10:58 18,4 C 23,3 C 23,9 C 79 % 1017,9 hPa 0,0 l/m 2 min 0 min 690 W/m 9,7 km/h (2 Bft) 97,87 %
13.08.2019 11:00 18,4 C 22,8 C 23,3 C 78 % 1017,9 hPa 0,0 l/m 2 min 0 min 678 W/m 16,1 km/h (3 Bft) 97,83 %
13.08.2019 11:02 18,5 C 23,3 C 23,9 C 77 % 1017,8 hPa 0,0 l/m 2 min 0 min 709 W/m 16,1 km/h (3 Bft) 93,62 %
13.08.2019 11:04 18,6 C 23,3 C 23,3 C 77 % 1017,8 hPa 0,0 l/m 2 min 0 min 760 W/m 16,1 km/h (3 Bft) 97,87 %
13.08.2019 11:06 18,6 C 22,8 C 23,3 C 76 % 1017,8 hPa 0,0 l/m 2 min 0 min 745 W/m 9,7 km/h (2 Bft) 97,87 %
13.08.2019 11:08 18,7 C 22,8 C 23,3 C 75 % 1017,8 hPa 0,0 l/m 2 min 0 min 759 W/m 16,1 km/h (3 Bft) 97,87 %
13.08.2019 11:10 18,7 C 22,2 C 22,2 C 75 % 1017,8 hPa 0,0 l/m 2 min 0 min 759 W/m 16,1 km/h (3 Bft) 95,74 %
13.08.2019 11:12 18,7 C 22,8 C 22,8 C 76 % 1017,8 hPa 0,0 l/m 2 min 0 min 763 W/m 6,4 km/h (2 Bft) 97,87 %
13.08.2019 11:14 18,8 C 22,8 C 23,3 C 77 % 1017,8 hPa 0,0 l/m 2 min 0 min 771 W/m 12,9 km/h (3 Bft) 97,83 %
13.08.2019 11:16 18,8 C 21,7 C 21,7 C 76 % 1017,8 hPa 0,0 l/m 2 min 0 min 750 W/m 12,9 km/h (3 Bft) 100,00 %
13.08.2019 11:18 18,8 C 20,0 C 20,0 C 75 % 1017,9 hPa 0,0 l/m 2 min 0 min 344 W/m 9,7 km/h (2 Bft) 100,00 %
13.08.2019 11:20 18,8 C 20,6 C 20,6 C 76 % 1017,8 hPa 0,0 l/m 0 min 0 min 106 W/m 9,7 km/h (2 Bft) 100,00 %
13.08.2019 11:22 18,8 C 22,2 C 21,7 C 75 % 1017,8 hPa 0,0 l/m 2 min 0 min 724 W/m 9,7 km/h (2 Bft) 100,00 %
13.08.2019 11:24 18,8 C 22,2 C 21,7 C 76 % 1017,8 hPa 0,0 l/m 2 min 0 min 770 W/m 9,7 km/h (2 Bft) 100,00 %
13.08.2019 11:26 18,8 C 22,2 C 21,1 C 75 % 1017,8 hPa 0,0 l/m 2 min 0 min 784 W/m 9,7 km/h (2 Bft) 100,00 %
13.08.2019 11:28 18,7 C 20,0 C 19,4 C 74 % 1017,8 hPa 0,0 l/m 2 min 0 min 732 W/m 16,1 km/h (3 Bft) 100,00 %
13.08.2019 11:30 18,7 C 19,4 C 18,3 C 74 % 1017,8 hPa 0,0 l/m 0 min 0 min 139 W/m 9,7 km/h (2 Bft) 97,83 %
13.08.2019 11:32 18,6 C 19,4 C 18,9 C 73 % 1017,8 hPa 0,0 l/m 0 min 0 min 179 W/m 9,7 km/h (2 Bft) 100,00 %
13.08.2019 11:34 18,6 C 21,7 C 18,9 C 73 % 1017,8 hPa 0,0 l/m 0 min 0 min 307 W/m 12,9 km/h (3 Bft) 100,00 %
13.08.2019 11:36 18,6 C 22,8 C 19,4 C 73 % 1017,8 hPa 0,0 l/m 2 min 0 min 832 W/m 16,1 km/h (3 Bft) 100,00 %
13.08.2019 11:38 18,7 C 23,3 C 20,0 C 74 % 1017,8 hPa 0,0 l/m 2 min 0 min 844 W/m 9,7 km/h (2 Bft) 100,00 %
13.08.2019 11:40 18,8 C 21,1 C 19,4 C 73 % 1017,8 hPa 0,0 l/m 2 min 0 min 553 W/m 12,9 km/h (3 Bft) 100,00 %
13.08.2019 11:42 18,7 C 19,4 C 18,9 C 72 % 1017,8 hPa 0,0 l/m 0 min 0 min 188 W/m 16,1 km/h (3 Bft) 100,00 %
13.08.2019 11:44 18,6 C 18,3 C 17,8 C 70 % 1017,8 hPa 0,0 l/m 0 min 0 min 157 W/m 16,1 km/h (3 Bft) 100,00 %
13.08.2019 11:46 18,5 C 18,3 C 17,8 C 71 % 1017,8 hPa 0,0 l/m 0 min 0 min 188 W/m 9,7 km/h (2 Bft) 100,00 %
13.08.2019 11:48 18,5 C 19,4 C 18,3 C 71 % 1017,7 hPa 0,0 l/m 0 min 0 min 199 W/m 9,7 km/h (2 Bft) 100,00 %
13.08.2019 11:50 18,5 C 18,9 C 17,8 C 71 % 1017,8 hPa 0,0 l/m 0 min 0 min 162 W/m 12,9 km/h (3 Bft) 100,00 %
13.08.2019 11:52 18,5 C 21,7 C 18,9 C 71 % 1017,8 hPa 0,0 l/m 2 min 0 min 534 W/m 9,7 km/h (2 Bft) 100,00 %
13.08.2019 11:54 18,6 C 23,3 C 19,4 C 73 % 1017,8 hPa 0,0 l/m 2 min 0 min 838 W/m 16,1 km/h (3 Bft) 100,00 %
13.08.2019 11:56 18,7 C 25,0 C 20,0 C 73 % 1017,8 hPa 0,0 l/m 2 min 0 min 864 W/m 19,3 km/h (3 Bft) 97,87 %
13.08.2019 11:58 18,8 C 26,1 C 20,6 C 73 % 1017,8 hPa 0,0 l/m 2 min 0 min 885 W/m 6,4 km/h (2 Bft) 95,74 %
13.08.2019 12:00 19,0 C 25,6 C 20,6 C 71 % 1017,8 hPa 0,0 l/m 2 min 0 min 921 W/m 16,1 km/h (3 Bft) 97,87 %
13.08.2019 12:02 19,2 C 25,0 C 20,6 C 71 % 1017,7 hPa 0,0 l/m 2 min 0 min 928 W/m 12,9 km/h (3 Bft) 97,87 %
13.08.2019 12:04 19,4 C 25,0 C 20,6 C 70 % 1017,7 hPa 0,0 l/m 2 min 0 min 920 W/m 12,9 km/h (3 Bft) 97,83 %
13.08.2019 12:08 19,6 C 23,3 C 20,0 C 69 % 1017,8 hPa 0,0 l/m 4 min 0 min 865 W/m 9,7 km/h (2 Bft) 95,83 %
13.08.2019 12:10 19,7 C 22,2 C 20,0 C 68 % 1017,8 hPa 0,0 l/m 2 min 0 min 860 W/m 12,9 km/h (3 Bft) 95,74 %
13.08.2019 12:12 19,7 C 21,1 C 19,4 C 66 % 1017,8 hPa 0,0 l/m 2 min 0 min 648 W/m 16,1 km/h (3 Bft) 97,87 %
13.08.2019 12:14 19,5 C 20,0 C 18,9 C 65 % 1017,7 hPa 0,0 l/m 0 min 0 min 177 W/m 16,1 km/h (3 Bft) 95,65 %
13.08.2019 12:16 19,4 C 19,4 C 18,3 C 65 % 1017,7 hPa 0,0 l/m 0 min 0 min 200 W/m 16,1 km/h (3 Bft) 97,87 %
13.08.2019 12:18 19,3 C 22,8 C 19,4 C 66 % 1017,7 hPa 0,0 l/m 0 min 0 min 278 W/m 12,9 km/h (3 Bft) 97,87 %
13.08.2019 12:20 19,4 C 24,4 C 20,0 C 67 % 1017,7 hPa 0,0 l/m 0 min 0 min 278 W/m 16,1 km/h (3 Bft) 97,87 %
13.08.2019 12:22 19,6 C 24,4 C 20,6 C 67 % 1017,7 hPa 0,0 l/m 0 min 0 min 278 W/m 16,1 km/h (3 Bft) 97,87 %
13.08.2019 12:24 19,7 C 22,8 C 20,0 C 66 % 1017,6 hPa 0,0 l/m 0 min 0 min 256 W/m 12,9 km/h (3 Bft) 97,83 %
13.08.2019 12:26 19,8 C 23,3 C 20,6 C 64 % 1017,5 hPa 0,0 l/m 0 min 0 min 262 W/m 16,1 km/h (3 Bft) 97,87 %
13.08.2019 12:28 19,9 C 24,4 C 20,6 C 64 % 1017,6 hPa 0,0 l/m 2 min 0 min 705 W/m 16,1 km/h (3 Bft) 97,87 %
13.08.2019 12:30 20,0 C 25,0 C 21,1 C 63 % 1017,6 hPa 0,0 l/m 2 min 0 min 923 W/m 16,1 km/h (3 Bft) 95,74 %
13.08.2019 12:32 20,1 C 25,0 C 21,1 C 62 % 1017,6 hPa 0,0 l/m 2 min 0 min 769 W/m 9,7 km/h (2 Bft) 95,74 %
13.08.2019 12:34 20,2 C 24,4 C 21,1 C 62 % 1017,6 hPa 0,0 l/m 0 min 0 min 311 W/m 19,3 km/h (3 Bft) 97,87 %
13.08.2019 12:36 20,4 C 25,0 C 21,7 C 61 % 1017,6 hPa 0,0 l/m 2 min 0 min 561 W/m 16,1 km/h (3 Bft) 95,65 %
13.08.2019 12:38 20,5 C 26,1 C 21,7 C 61 % 1017,6 hPa 0,0 l/m 2 min 0 min 739 W/m 16,1 km/h (3 Bft) 98,21 %
13.08.2019 12:40 20,7 C 25,0 C 21,1 C 62 % 1017,7 hPa 0,0 l/m 2 min 0 min 480 W/m 9,7 km/h (2 Bft) 97,87 %
13.08.2019 12:42 20,8 C 25,0 C 21,1 C 61 % 1017,6 hPa 0,0 l/m 2 min 0 min 480 W/m 9,7 km/h (2 Bft) 97,87 %
13.08.2019 12:44 20,9 C 26,1 C 21,7 C 61 % 1017,6 hPa 0,0 l/m 2 min 0 min 520 W/m 12,9 km/h (3 Bft) 97,87 %
13.08.2019 12:46 21,0 C 26,7 C 21,7 C 60 % 1017,7 hPa 0,0 l/m 2 min 0 min 951 W/m 16,1 km/h (3 Bft) 100,00 %
13.08.2019 12:48 21,2 C 26,7 C 21,7 C 59 % 1017,5 hPa 0,0 l/m 2 min 0 min 945 W/m 19,3 km/h (3 Bft) 100,00 %
13.08.2019 12:50 21,3 C 25,0 C 21,1 C 58 % 1017,6 hPa 0,0 l/m 2 min 0 min 973 W/m 16,1 km/h (3 Bft) 100,00 %
13.08.2019 12:52 21,3 C 25,6 C 21,7 C 57 % 1017,6 hPa 0,0 l/m 2 min 0 min 983 W/m 19,3 km/h (3 Bft) 100,00 %
13.08.2019 12:54 21,4 C 25,6 C 21,1 C 58 % 1017,6 hPa 0,0 l/m 2 min 0 min 956 W/m 25,7 km/h (4 Bft) 100,00 %
13.08.2019 12:56 21,4 C 26,7 C 21,7 C 57 % 1017,5 hPa 0,0 l/m 2 min 0 min 921 W/m 19,3 km/h (3 Bft) 100,00 %
13.08.2019 12:58 21,6 C 26,7 C 21,7 C 57 % 1017,5 hPa 0,0 l/m 2 min 0 min 919 W/m 19,3 km/h (3 Bft) 100,00 %
13.08.2019 13:00 21,6 C 26,7 C 21,7 C 56 % 1017,5 hPa 0,0 l/m 2 min 0 min 916 W/m 19,3 km/h (3 Bft) 100,00 %
13.08.2019 13:02 21,7 C 26,1 C 21,7 C 56 % 1017,5 hPa 0,0 l/m 2 min 0 min 917 W/m 16,1 km/h (3 Bft) 95,74 %
13.08.2019 13:04 21,7 C 25,6 C 21,1 C 56 % 1017,5 hPa 0,0 l/m 2 min 0 min 921 W/m 25,7 km/h (4 Bft) 97,87 %
13.08.2019 13:06 21,7 C 23,9 C 21,1 C 53 % 1017,5 hPa 0,0 l/m 2 min 0 min 921 W/m 16,1 km/h (3 Bft) 97,87 %
13.08.2019 13:08 21,6 C 24,4 C 20,6 C 53 % 1017,5 hPa 0,0 l/m 0 min 0 min 232 W/m 12,9 km/h (3 Bft) 97,87 %
13.08.2019 13:10 21,7 C 25,6 C 21,1 C 55 % 1017,4 hPa 0,0 l/m 2 min 0 min 922 W/m 16,1 km/h (3 Bft) 97,83 %
13.08.2019 13:12 21,7 C 26,1 C 21,1 C 55 % 1017,4 hPa 0,0 l/m 2 min 0 min 951 W/m 16,1 km/h (3 Bft) 97,87 %
13.08.2019 13:14 21,7 C 26,7 C 21,7 C 56 % 1017,5 hPa 0,0 l/m 2 min 0 min 1027 W/m 16,1 km/h (3 Bft) 97,87 %
13.08.2019 13:16 21,7 C 25,0 C 21,7 C 57 % 1017,5 hPa 0,0 l/m 2 min 0 min 885 W/m 16,1 km/h (3 Bft) 97,87 %
13.08.2019 13:18 21,6 C 25,0 C 21,7 C 56 % 1017,5 hPa 0,0 l/m 0 min 0 min 380 W/m 12,9 km/h (3 Bft) 95,74 %
13.08.2019 13:20 21,6 C 24,4 C 21,7 C 57 % 1017,4 hPa 0,0 l/m 0 min 0 min 388 W/m 16,1 km/h (3 Bft) 95,65 %
13.08.2019 13:22 21,6 C 24,4 C 21,7 C 55 % 1017,4 hPa 0,0 l/m 2 min 0 min 418 W/m 12,9 km/h (3 Bft) 97,87 %
13.08.2019 13:24 21,6 C 23,9 C 21,7 C 56 % 1017,3 hPa 0,0 l/m 2 min 0 min 411 W/m 6,4 km/h (2 Bft) 97,87 %
13.08.2019 13:26 21,6 C 23,3 C 21,7 C 55 % 1017,4 hPa 0,0 l/m 0 min 0 min 347 W/m 9,7 km/h (2 Bft) 97,87 %
13.08.2019 13:28 21,6 C 24,4 C 22,2 C 58 % 1017,3 hPa 0,0 l/m 0 min 0 min 353 W/m 9,7 km/h (2 Bft) 97,87 %
13.08.2019 13:30 21,6 C 22,8 C 21,7 C 56 % 1017,3 hPa 0,0 l/m 0 min 0 min 302 W/m 22,5 km/h (4 Bft) 95,74 %
13.08.2019 13:32 21,5 C 22,2 C 20,6 C 58 % 1017,4 hPa 0,0 l/m 0 min 0 min 213 W/m 9,7 km/h (2 Bft) 97,83 %
13.08.2019 13:34 21,4 C 21,1 C 20,6 C 54 % 1017,4 hPa 0,0 l/m 0 min 0 min 234 W/m 19,3 km/h (3 Bft) 97,87 %
13.08.2019 13:36 21,3 C 23,3 C 21,7 C 55 % 1017,3 hPa 0,0 l/m 0 min 0 min 300 W/m 16,1 km/h (3 Bft) 95,74 %
13.08.2019 13:38 21,3 C 23,3 C 22,2 C 54 % 1017,3 hPa 0,0 l/m 0 min 0 min 306 W/m 12,9 km/h (3 Bft) 93,62 %
13.08.2019 13:40 21,3 C 23,3 C 22,2 C 54 % 1017,3 hPa 0,0 l/m 0 min 0 min 306 W/m 22,5 km/h (4 Bft) 95,74 %
13.08.2019 13:42 21,2 C 22,2 C 21,7 C 53 % 1017,3 hPa 0,0 l/m 2 min 0 min 486 W/m 19,3 km/h (3 Bft) 100,00 %
13.08.2019 13:44 21,1 C 21,7 C 20,6 C 54 % 1017,3 hPa 0,0 l/m 0 min 0 min 301 W/m 25,7 km/h (4 Bft) 100,00 %
13.08.2019 13:46 21,1 C 21,7 C 21,1 C 55 % 1017,4 hPa 0,0 l/m 0 min 0 min 378 W/m 25,7 km/h (4 Bft) 97,87 %
13.08.2019 13:48 21,0 C 21,7 C 20,6 C 55 % 1017,3 hPa 0,0 l/m 0 min 0 min 365 W/m 19,3 km/h (3 Bft) 97,87 %
13.08.2019 13:50 20,9 C 21,1 C 20,6 C 55 % 1017,4 hPa 0,0 l/m 0 min 0 min 343 W/m 12,9 km/h (3 Bft) 97,87 %
13.08.2019 13:52 20,9 C 21,7 C 20,6 C 56 % 1017,3 hPa 0,0 l/m 0 min 0 min 333 W/m 19,3 km/h (3 Bft) 100,00 %
13.08.2019 13:54 20,8 C 21,1 C 20,6 C 55 % 1017,3 hPa 0,0 l/m 0 min 0 min 332 W/m 25,7 km/h (4 Bft) 97,87 %
13.08.2019 13:56 20,8 C 21,1 C 20,6 C 55 % 1017,3 hPa 0,0 l/m 0 min 0 min 319 W/m 25,7 km/h (4 Bft) 97,83 %
13.08.2019 13:58 20,7 C 22,2 C 21,1 C 55 % 1017,4 hPa 0,0 l/m 0 min 0 min 306 W/m 16,1 km/h (3 Bft) 97,87 %
13.08.2019 14:00 20,7 C 25,0 C 24,4 C 56 % 1017,4 hPa 0,0 l/m 2 min 0 min 945 W/m 12,9 km/h (3 Bft) 97,87 %
13.08.2019 14:02 20,8 C 24,4 C 24,4 C 56 % 1017,3 hPa 0,0 l/m 2 min 0 min 1107 W/m 22,5 km/h (4 Bft) 95,83 %
13.08.2019 14:04 20,8 C 22,2 C 22,2 C 56 % 1017,3 hPa 0,0 l/m 2 min 0 min 789 W/m 19,3 km/h (3 Bft) 95,74 %
13.08.2019 14:06 20,8 C 21,7 C 21,1 C 56 % 1017,3 hPa 0,0 l/m 0 min 0 min 233 W/m 12,9 km/h (3 Bft) 97,87 %
13.08.2019 14:08 20,7 C 21,1 C 20,6 C 57 % 1017,4 hPa 0,0 l/m 0 min 0 min 193 W/m 12,9 km/h (3 Bft) 95,65 %
13.08.2019 14:10 20,7 C 20,6 C 20,6 C 56 % 1017,3 hPa 0,0 l/m 0 min 0 min 180 W/m 9,7 km/h (2 Bft) 95,74 %
13.08.2019 14:12 20,7 C 20,6 C 20,0 C 56 % 1017,3 hPa 0,0 l/m 0 min 0 min 213 W/m 22,5 km/h (4 Bft) 95,74 %
13.08.2019 14:14 20,6 C 20,6 C 20,0 C 57 % 1017,3 hPa 0,0 l/m 0 min 0 min 252 W/m 16,1 km/h (3 Bft) 95,74 %
13.08.2019 14:16 20,6 C 20,6 C 20,0 C 57 % 1017,3 hPa 0,0 l/m 0 min 0 min 282 W/m 12,9 km/h (3 Bft) 97,87 %
13.08.2019 14:18 20,5 C 20,6 C 20,0 C 56 % 1017,3 hPa 0,0 l/m 0 min 0 min 304 W/m 22,5 km/h (4 Bft) 97,83 %
13.08.2019 14:20 20,5 C 21,1 C 20,0 C 57 % 1017,3 hPa 0,0 l/m 0 min 0 min 294 W/m 12,9 km/h (3 Bft) 95,74 %
13.08.2019 14:22 20,4 C 22,2 C 21,1 C 58 % 1017,3 hPa 0,0 l/m 0 min 0 min 370 W/m 9,7 km/h (2 Bft) 97,87 %
13.08.2019 14:24 20,5 C 22,8 C 21,7 C 58 % 1017,4 hPa 0,0 l/m 0 min 0 min 381 W/m 12,9 km/h (3 Bft) 97,87 %
13.08.2019 14:26 20,5 C 22,2 C 21,7 C 58 % 1017,3 hPa 0,0 l/m 0 min 0 min 333 W/m 16,1 km/h (3 Bft) 97,87 %
13.08.2019 14:28 20,5 C 22,2 C 21,1 C 57 % 1017,3 hPa 0,0 l/m 0 min 0 min 278 W/m 9,7 km/h (2 Bft) 97,87 %
13.08.2019 14:30 20,5 C 22,2 C 21,1 C 57 % 1017,3 hPa 0,0 l/m 0 min 0 min 350 W/m 12,9 km/h (3 Bft) 97,83 %
13.08.2019 14:32 20,5 C 23,9 C 21,7 C 57 % 1017,3 hPa 0,0 l/m 2 min 0 min 434 W/m 12,9 km/h (3 Bft) 95,83 %
13.08.2019 14:34 20,6 C 26,1 C 21,7 C 58 % 1017,3 hPa 0,0 l/m 2 min 0 min 960 W/m 12,9 km/h (3 Bft) 97,87 %
13.08.2019 14:36 20,7 C 26,1 C 22,2 C 59 % 1017,3 hPa 0,0 l/m 2 min 0 min 782 W/m 19,3 km/h (3 Bft) 97,87 %
13.08.2019 14:38 20,8 C 25,6 C 22,2 C 57 % 1017,3 hPa 0,0 l/m 2 min 0 min 867 W/m 35,4 km/h (5 Bft) 97,87 %
13.08.2019 14:40 20,9 C 25,6 C 22,2 C 58 % 1017,4 hPa 0,0 l/m 2 min 0 min 965 W/m 19,3 km/h (3 Bft) 95,74 %
13.08.2019 14:42 21,1 C 26,1 C 22,2 C 55 % 1017,3 hPa 0,0 l/m 2 min 0 min 1033 W/m 22,5 km/h (4 Bft) 95,65 %
13.08.2019 14:44 21,2 C 23,9 C 22,2 C 55 % 1017,3 hPa 0,0 l/m 2 min 0 min 779 W/m 16,1 km/h (3 Bft) 97,87 %
13.08.2019 14:46 21,2 C 22,2 C 21,1 C 54 % 1017,3 hPa 0,0 l/m 2 min 0 min 397 W/m 25,7 km/h (4 Bft) 95,74 %
13.08.2019 14:48 21,2 C 22,8 C 21,1 C 54 % 1017,3 hPa 0,0 l/m 0 min 0 min 283 W/m 12,9 km/h (3 Bft) 95,74 %
13.08.2019 14:50 21,2 C 22,2 C 21,1 C 55 % 1017,4 hPa 0,0 l/m 0 min 0 min 278 W/m 19,3 km/h (3 Bft) 97,87 %
13.08.2019 14:52 21,1 C 21,1 C 20,6 C 54 % 1017,3 hPa 0,0 l/m 0 min 0 min 225 W/m 29,0 km/h (5 Bft) 97,87 %
13.08.2019 14:54 21,1 C 21,1 C 20,6 C 55 % 1017,3 hPa 0,0 l/m 0 min 0 min 204 W/m 19,3 km/h (3 Bft) 97,83 %
13.08.2019 14:56 21,0 C 21,1 C 20,6 C 56 % 1017,3 hPa 0,0 l/m 0 min 0 min 209 W/m 16,1 km/h (3 Bft) 93,62 %
13.08.2019 14:58 20,9 C 20,6 C 20,0 C 55 % 1017,2 hPa 0,0 l/m 0 min 0 min 226 W/m 12,9 km/h (3 Bft) 97,87 %
13.08.2019 15:00 20,9 C 21,1 C 20,6 C 54 % 1017,3 hPa 0,0 l/m 0 min 0 min 291 W/m 16,1 km/h (3 Bft) 95,74 %
13.08.2019 15:02 20,9 C 22,8 C 20,6 C 55 % 1017,2 hPa 0,0 l/m 2 min 0 min 393 W/m 16,1 km/h (3 Bft) 97,22 %
13.08.2019 15:04 20,9 C 22,8 C 21,1 C 55 % 1017,2 hPa 0,0 l/m 2 min 0 min 372 W/m 12,9 km/h (3 Bft) 95,74 %
13.08.2019 15:06 20,9 C 22,2 C 21,1 C 54 % 1017,2 hPa 0,0 l/m 0 min 0 min 325 W/m 16,1 km/h (3 Bft) 97,87 %
13.08.2019 15:08 20,9 C 23,3 C 21,1 C 55 % 1017,2 hPa 0,0 l/m 0 min 0 min 345 W/m 22,5 km/h (4 Bft) 97,83 %
13.08.2019 15:10 20,9 C 24,4 C 21,7 C 55 % 1017,1 hPa 0,0 l/m 0 min 0 min 345 W/m 12,9 km/h (3 Bft) 95,74 %
13.08.2019 15:12 21,0 C 23,9 C 21,7 C 56 % 1017,1 hPa 0,0 l/m 0 min 0 min 329 W/m 12,9 km/h (3 Bft) 97,87 %
13.08.2019 15:14 21,1 C 23,9 C 21,1 C 56 % 1017,1 hPa 0,0 l/m 0 min 0 min 266 W/m 12,9 km/h (3 Bft) 97,87 %
13.08.2019 15:16 21,1 C 25,0 C 21,7 C 55 % 1017,0 hPa 0,0 l/m 2 min 0 min 604 W/m 29,0 km/h (5 Bft) 97,92 %
13.08.2019 15:18 21,2 C 24,4 C 21,7 C 53 % 1017,1 hPa 0,0 l/m 2 min 0 min 967 W/m 35,4 km/h (5 Bft) 97,87 %
13.08.2019 15:20 21,3 C 25,0 C 22,2 C 55 % 1017,1 hPa 0,0 l/m 2 min 0 min 920 W/m 22,5 km/h (4 Bft) 97,87 %
13.08.2019 15:22 21,3 C 25,0 C 21,7 C 54 % 1017,0 hPa 0,0 l/m 2 min 0 min 867 W/m 12,9 km/h (3 Bft) 97,83 %
13.08.2019 15:24 21,4 C 23,9 C 21,7 C 55 % 1017,1 hPa 0,0 l/m 2 min 0 min 746 W/m 25,7 km/h (4 Bft) 97,87 %
13.08.2019 15:26 21,5 C 23,3 C 21,7 C 55 % 1017,0 hPa 0,0 l/m 2 min 0 min 371 W/m 9,7 km/h (2 Bft) 97,87 %
13.08.2019 15:28 21,5 C 22,2 C 21,1 C 55 % 1017,0 hPa 0,0 l/m 0 min 0 min 271 W/m 19,3 km/h (3 Bft) 95,74 %
13.08.2019 15:30 21,4 C 21,7 C 21,1 C 53 % 1017,0 hPa 0,0 l/m 0 min 0 min 286 W/m 19,3 km/h (3 Bft) 95,74 %
13.08.2019 15:32 21,4 C 21,7 C 21,1 C 54 % 1017,0 hPa 0,0 l/m 0 min 0 min 265 W/m 12,9 km/h (3 Bft) 95,74 %
13.08.2019 15:34 21,4 C 21,7 C 21,1 C 53 % 1016,9 hPa 0,0 l/m 0 min 0 min 248 W/m 12,9 km/h (3 Bft) 95,65 %
13.08.2019 15:36 21,3 C 21,7 C 21,1 C 54 % 1016,9 hPa 0,0 l/m 0 min 0 min 240 W/m 9,7 km/h (2 Bft) 93,62 %
13.08.2019 15:38 21,3 C 21,1 C 21,1 C 54 % 1017,0 hPa 0,0 l/m 0 min 0 min 232 W/m 12,9 km/h (3 Bft) 95,74 %
13.08.2019 15:40 21,3 C 21,1 C 21,1 C 53 % 1016,9 hPa 0,0 l/m 0 min 0 min 223 W/m 12,9 km/h (3 Bft) 93,62 %
13.08.2019 15:42 21,2 C 21,1 C 20,6 C 54 % 1016,9 hPa 0,0 l/m 0 min 0 min 222 W/m 12,9 km/h (3 Bft) 91,49 %
13.08.2019 15:44 21,2 C 21,1 C 20,6 C 53 % 1016,9 hPa 0,0 l/m 0 min 0 min 219 W/m 12,9 km/h (3 Bft) 95,74 %
13.08.2019 15:46 21,1 C 21,1 C 20,6 C 54 % 1016,9 hPa 0,0 l/m 0 min 0 min 242 W/m 9,7 km/h (2 Bft) 95,65 %
13.08.2019 15:48 21,1 C 21,7 C 20,6 C 54 % 1016,9 hPa 0,0 l/m 0 min 0 min 260 W/m 9,7 km/h (2 Bft) 97,87 %
13.08.2019 15:50 21,1 C 21,1 C 21,1 C 55 % 1016,9 hPa 0,0 l/m 0 min 0 min 265 W/m 9,7 km/h (2 Bft) 97,87 %
13.08.2019 15:52 21,1 C 21,7 C 20,6 C 55 % 1016,9 hPa 0,0 l/m 0 min 0 min 272 W/m 12,9 km/h (3 Bft) 97,87 %
13.08.2019 15:54 21,0 C 21,1 C 20,6 C 54 % 1016,9 hPa 0,0 l/m 0 min 0 min 282 W/m 12,9 km/h (3 Bft) 97,87 %
13.08.2019 15:56 20,9 C 21,1 C 20,6 C 54 % 1016,9 hPa 0,0 l/m 0 min 0 min 280 W/m 16,1 km/h (3 Bft) 97,83 %
13.08.2019 15:58 20,9 C 21,1 C 20,6 C 53 % 1016,9 hPa 0,0 l/m 0 min 0 min 273 W/m 19,3 km/h (3 Bft) 96,00 %
13.08.2019 16:00 20,9 C 21,1 C 20,6 C 54 % 1017,0 hPa 0,0 l/m 0 min 0 min 267 W/m 16,1 km/h (3 Bft) 97,87 %
13.08.2019 16:02 20,8 C 21,1 C 20,6 C 54 % 1016,9 hPa 0,0 l/m 0 min 0 min 264 W/m 9,7 km/h (2 Bft) 97,87 %
13.08.2019 16:04 20,8 C 21,7 C 20,6 C 55 % 1017,0 hPa 0,0 l/m 0 min 0 min 255 W/m 12,9 km/h (3 Bft) 97,87 %
13.08.2019 16:06 20,8 C 21,1 C 20,6 C 54 % 1017,1 hPa 0,0 l/m 0 min 0 min 243 W/m 16,1 km/h (3 Bft) 97,87 %
13.08.2019 16:08 20,8 C 21,1 C 20,6 C 56 % 1016,9 hPa 0,0 l/m 0 min 0 min 234 W/m 22,5 km/h (4 Bft) 97,83 %
13.08.2019 16:10 20,8 C 21,1 C 20,6 C 55 % 1017,0 hPa 0,0 l/m 0 min 0 min 222 W/m 6,4 km/h (2 Bft) 97,87 %
13.08.2019 16:12 20,7 C 20,6 C 20,6 C 54 % 1017,1 hPa 0,0 l/m 0 min 0 min 212 W/m 19,3 km/h (3 Bft) 100,00 %
13.08.2019 16:14 20,7 C 20,6 C 20,6 C 54 % 1017,0 hPa 0,0 l/m 0 min 0 min 225 W/m 19,3 km/h (3 Bft) 100,00 %
13.08.2019 16:16 20,7 C 21,1 C 20,0 C 55 % 1017,0 hPa 0,0 l/m 0 min 0 min 262 W/m 16,1 km/h (3 Bft) 97,87 %
13.08.2019 16:18 20,6 C 21,1 C 20,6 C 54 % 1017,1 hPa 0,0 l/m 2 min 0 min 322 W/m 16,1 km/h (3 Bft) 100,00 %
13.08.2019 16:20 20,6 C 21,7 C 20,6 C 56 % 1017,2 hPa 0,0 l/m 2 min 0 min 388 W/m 16,1 km/h (3 Bft) 97,87 %
13.08.2019 16:22 20,7 C 21,7 C 20,6 C 58 % 1017,3 hPa 0,0 l/m 2 min 0 min 347 W/m 16,1 km/h (3 Bft) 100,00 %
13.08.2019 16:24 20,7 C 21,1 C 20,0 C 62 % 1017,4 hPa 0,0 l/m 0 min 0 min 261 W/m 9,7 km/h (2 Bft) 100,00 %
13.08.2019 16:26 20,6 C 20,6 C 20,0 C 62 % 1017,3 hPa 0,0 l/m 0 min 0 min 197 W/m 9,7 km/h (2 Bft) 100,00 %
13.08.2019 16:28 20,4 C 19,4 C 19,4 C 62 % 1017,4 hPa 0,0 l/m 0 min 0 min 167 W/m 22,5 km/h (4 Bft) 97,87 %
13.08.2019 16:30 20,2 C 18,9 C 18,9 C 62 % 1017,4 hPa 0,0 l/m 0 min 0 min 152 W/m 22,5 km/h (4 Bft) 100,00 %
13.08.2019 16:32 20,1 C 18,3 C 17,8 C 64 % 1017,4 hPa 0,0 l/m 0 min 2 min 120 W/m 9,7 km/h (2 Bft) 100,00 %
13.08.2019 16:34 19,9 C 17,8 C 17,2 C 63 % 1017,4 hPa 0,0 l/m 0 min 0 min 104 W/m 25,7 km/h (4 Bft) 97,87 %
13.08.2019 16:36 19,7 C 17,8 C 17,2 C 65 % 1017,4 hPa 0,0 l/m 0 min 2 min 109 W/m 6,4 km/h (2 Bft) 97,87 %
13.08.2019 16:38 19,5 C 17,2 C 17,2 C 65 % 1017,5 hPa 0,0 l/m 0 min 0 min 114 W/m 12,9 km/h (3 Bft) 100,00 %
13.08.2019 16:40 19,3 C 17,2 C 17,2 C 66 % 1017,6 hPa 0,0 l/m 0 min 0 min 120 W/m 6,4 km/h (2 Bft) 100,00 %
13.08.2019 16:42 19,2 C 17,8 C 17,2 C 67 % 1017,6 hPa 0,0 l/m 0 min 0 min 122 W/m 6,4 km/h (2 Bft) 100,00 %
13.08.2019 16:44 19,0 C 17,2 C 17,2 C 66 % 1017,6 hPa 0,0 l/m 0 min 0 min 137 W/m 12,9 km/h (3 Bft) 100,00 %
13.08.2019 16:46 18,8 C 17,8 C 17,2 C 66 % 1017,8 hPa 0,0 l/m 0 min 0 min 163 W/m 12,9 km/h (3 Bft) 97,87 %
13.08.2019 16:48 18,7 C 17,8 C 17,2 C 67 % 1017,8 hPa 0,0 l/m 0 min 2 min 164 W/m 12,9 km/h (3 Bft) 100,00 %
13.08.2019 16:50 18,6 C 17,8 C 16,7 C 68 % 1017,8 hPa 0,0 l/m 0 min 2 min 148 W/m 9,7 km/h (2 Bft) 97,87 %
13.08.2019 16:52 18,5 C 17,2 C 16,7 C 69 % 1017,9 hPa 0,0 l/m 0 min 0 min 142 W/m 12,9 km/h (3 Bft) 100,00 %
13.08.2019 16:54 18,4 C 16,7 C 16,1 C 69 % 1018,0 hPa 0,0 l/m 0 min 0 min 129 W/m 19,3 km/h (3 Bft) 100,00 %
13.08.2019 16:56 18,2 C 16,7 C 16,1 C 71 % 1018,0 hPa 0,0 l/m 0 min 2 min 113 W/m 19,3 km/h (3 Bft) 97,87 %
13.08.2019 16:58 18,0 C 15,6 C 15,6 C 72 % 1018,0 hPa 0,0 l/m 0 min 2 min 103 W/m 22,5 km/h (4 Bft) 100,00 %
13.08.2019 17:00 17,8 C 14,4 C 14,4 C 74 % 1018,0 hPa 0,0 l/m 0 min 2 min 100 W/m 12,9 km/h (3 Bft) 100,00 %
13.08.2019 17:02 17,7 C 14,4 C 14,4 C 75 % 1018,1 hPa 0,0 l/m 0 min 2 min 100 W/m 12,9 km/h (3 Bft) 100,00 %
13.08.2019 17:04 17,6 C 13,9 C 13,9 C 76 % 1018,3 hPa 0,0 l/m 0 min 2 min 97 W/m 9,7 km/h (2 Bft) 100,00 %
13.08.2019 17:06 17,3 C 13,9 C 13,9 C 77 % 1018,3 hPa 0,0 l/m 0 min 2 min 90 W/m 16,1 km/h (3 Bft) 100,00 %
13.08.2019 17:08 17,1 C 13,9 C 13,9 C 78 % 1018,3 hPa 0,0 l/m 0 min 2 min 76 W/m 19,3 km/h (3 Bft) 97,87 %
13.08.2019 17:10 16,9 C 13,9 C 13,9 C 79 % 1018,3 hPa 0,2 l/m 0 min 2 min 59 W/m 12,9 km/h (3 Bft) 100,00 %
13.08.2019 17:12 16,8 C 13,9 C 13,9 C 80 % 1018,3 hPa 0,0 l/m 0 min 2 min 54 W/m 12,9 km/h (3 Bft) 97,87 %
13.08.2019 17:14 16,6 C 13,3 C 13,9 C 81 % 1018,4 hPa 0,0 l/m 0 min 2 min 54 W/m 9,7 km/h (2 Bft) 97,87 %
13.08.2019 17:16 16,4 C 13,3 C 13,9 C 81 % 1018,4 hPa 0,0 l/m 0 min 2 min 52 W/m 9,7 km/h (2 Bft) 100,00 %
13.08.2019 17:18 16,3 C 13,3 C 13,9 C 82 % 1018,4 hPa 0,0 l/m 0 min 2 min 51 W/m 9,7 km/h (2 Bft) 100,00 %
13.08.2019 17:20 16,2 C 13,3 C 13,9 C 82 % 1018,3 hPa 0,0 l/m 0 min 2 min 53 W/m 9,7 km/h (2 Bft) 97,87 %
13.08.2019 17:22 16,1 C 13,3 C 13,9 C 83 % 1018,3 hPa 0,0 l/m 0 min 2 min 52 W/m 9,7 km/h (2 Bft) 95,74 %
13.08.2019 17:24 16,1 C 13,3 C 13,3 C 83 % 1018,3 hPa 0,0 l/m 0 min 2 min 48 W/m 6,4 km/h (2 Bft) 95,74 %
13.08.2019 17:26 16,0 C 13,3 C 13,3 C 84 % 1018,3 hPa 0,0 l/m 0 min 2 min 43 W/m 6,4 km/h (2 Bft) 100,00 %
13.08.2019 17:28 15,9 C 13,3 C 13,3 C 84 % 1018,3 hPa 0,0 l/m 0 min 2 min 43 W/m 6,4 km/h (2 Bft) 100,00 %
13.08.2019 17:30 15,8 C 13,3 C 13,3 C 84 % 1018,3 hPa 0,0 l/m 0 min 2 min 45 W/m 3,2 km/h (1 Bft) 95,65 %
13.08.2019 17:32 15,8 C 13,3 C 13,3 C 84 % 1018,4 hPa 0,0 l/m 0 min 2 min 46 W/m 3,2 km/h (1 Bft) 97,87 %
13.08.2019 17:34 15,7 C 13,3 C 13,3 C 85 % 1018,3 hPa 0,0 l/m 0 min 2 min 45 W/m 6,4 km/h (2 Bft) 97,87 %
13.08.2019 17:36 15,7 C 13,3 C 13,3 C 85 % 1018,3 hPa 0,0 l/m 0 min 0 min 42 W/m 12,9 km/h (3 Bft) 97,87 %
13.08.2019 17:38 15,6 C 13,3 C 13,3 C 85 % 1018,3 hPa 0,0 l/m 0 min 0 min 44 W/m 6,4 km/h (2 Bft) 97,87 %
13.08.2019 17:40 15,6 C 13,9 C 13,9 C 85 % 1018,2 hPa 0,0 l/m 0 min 0 min 51 W/m 6,4 km/h (2 Bft) 97,83 %
13.08.2019 17:42 15,5 C 13,3 C 13,9 C 85 % 1018,3 hPa 0,0 l/m 0 min 0 min 54 W/m 3,2 km/h (1 Bft) 95,74 %
13.08.2019 17:44 15,4 C 13,9 C 13,9 C 85 % 1018,2 hPa 0,0 l/m 0 min 0 min 51 W/m 3,2 km/h (1 Bft) 97,87 %
13.08.2019 17:46 15,4 C 13,9 C 13,9 C 85 % 1018,2 hPa 0,0 l/m 0 min 0 min 47 W/m 9,7 km/h (2 Bft) 97,87 %
13.08.2019 17:48 15,4 C 13,9 C 13,9 C 85 % 1018,3 hPa 0,0 l/m 0 min 0 min 42 W/m 3,2 km/h (1 Bft) 97,87 %
13.08.2019 17:50 15,3 C 13,9 C 13,9 C 86 % 1018,3 hPa 0,0 l/m 0 min 0 min 39 W/m 3,2 km/h (1 Bft) 97,87 %
13.08.2019 17:52 15,3 C 13,9 C 13,9 C 86 % 1018,2 hPa 0,0 l/m 0 min 0 min 39 W/m 3,2 km/h (1 Bft) 97,83 %
13.08.2019 17:54 15,2 C 13,9 C 13,9 C 86 % 1018,1 hPa 0,0 l/m 0 min 0 min 42 W/m 6,4 km/h (2 Bft) 97,87 %
13.08.2019 17:56 15,2 C 13,9 C 13,9 C 86 % 1018,1 hPa 0,0 l/m 0 min 0 min 44 W/m 6,4 km/h (2 Bft) 97,87 %
13.08.2019 17:58 15,2 C 13,9 C 13,9 C 86 % 1018,2 hPa 0,0 l/m 0 min 0 min 50 W/m 6,4 km/h (2 Bft) 97,87 %
13.08.2019 18:00 15,2 C 13,9 C 13,9 C 86 % 1018,1 hPa 0,0 l/m 0 min 0 min 54 W/m 3,2 km/h (1 Bft) 97,87 %
13.08.2019 18:02 15,2 C 13,9 C 13,9 C 86 % 1018,2 hPa 0,0 l/m 0 min 0 min 54 W/m 3,2 km/h (1 Bft) 93,62 %
13.08.2019 18:04 15,1 C 13,9 C 13,9 C 86 % 1018,1 hPa 0,0 l/m 0 min 0 min 53 W/m 3,2 km/h (1 Bft) 97,83 %
13.08.2019 18:08 15,1 C 13,9 C 13,9 C 86 % 1018,1 hPa 0,0 l/m 0 min 0 min 51 W/m 3,2 km/h (1 Bft) 97,87 %
13.08.2019 18:10 15,1 C 13,9 C 13,9 C 86 % 1018,1 hPa 0,0 l/m 0 min 0 min 45 W/m 0,0 km/h (0 Bft) 97,87 %
13.08.2019 18:12 15,1 C 13,9 C 13,9 C 86 % 1018,1 hPa 0,0 l/m 0 min 0 min 44 W/m 0,0 km/h (0 Bft) 95,74 %
13.08.2019 18:14 15,1 C 13,9 C 13,9 C 86 % 1018,0 hPa 0,0 l/m 0 min 0 min 43 W/m 0,0 km/h (0 Bft) 97,87 %
13.08.2019 18:16 15,1 C 13,9 C 13,9 C 87 % 1018,0 hPa 0,0 l/m 0 min 0 min 46 W/m 0,0 km/h (0 Bft) 97,83 %
13.08.2019 18:18 15,1 C 13,9 C 13,9 C 87 % 1018,0 hPa 0,0 l/m 0 min 0 min 48 W/m 3,2 km/h (1 Bft) 97,87 %
13.08.2019 18:20 15,1 C 13,9 C 13,9 C 87 % 1018,0 hPa 0,0 l/m 0 min 0 min 49 W/m 0,0 km/h (0 Bft) 97,87 %
13.08.2019 18:22 15,1 C 14,4 C 13,9 C 87 % 1018,0 hPa 0,0 l/m 0 min 0 min 51 W/m 0,0 km/h (0 Bft) 97,87 %
13.08.2019 18:24 15,1 C 14,4 C 13,9 C 87 % 1018,0 hPa 0,0 l/m 0 min 0 min 51 W/m 3,2 km/h (1 Bft) 97,87 %
13.08.2019 18:26 15,1 C 14,4 C 14,4 C 87 % 1018,0 hPa 0,0 l/m 0 min 0 min 52 W/m 3,2 km/h (1 Bft) 95,65 %
13.08.2019 18:28 15,1 C 14,4 C 14,4 C 87 % 1018,0 hPa 0,0 l/m 0 min 0 min 53 W/m 3,2 km/h (1 Bft) 95,74 %
13.08.2019 18:30 15,1 C 14,4 C 14,4 C 87 % 1018,0 hPa 0,0 l/m 0 min 0 min 50 W/m 3,2 km/h (1 Bft) 95,74 %
13.08.2019 18:32 15,1 C 14,4 C 14,4 C 87 % 1018,0 hPa 0,0 l/m 0 min 0 min 46 W/m 3,2 km/h (1 Bft) 95,74 %
13.08.2019 18:34 15,1 C 14,4 C 14,4 C 86 % 1017,9 hPa 0,0 l/m 0 min 0 min 42 W/m 3,2 km/h (1 Bft) 93,62 %
13.08.2019 18:36 15,1 C 14,4 C 14,4 C 86 % 1017,9 hPa 0,0 l/m 0 min 0 min 42 W/m 3,2 km/h (1 Bft) 95,74 %
13.08.2019 18:38 15,1 C 14,4 C 14,4 C 86 % 1018,0 hPa 0,0 l/m 0 min 0 min 43 W/m 3,2 km/h (1 Bft) 95,65 %
13.08.2019 18:40 15,1 C 14,4 C 14,4 C 86 % 1018,0 hPa 0,0 l/m 0 min 0 min 47 W/m 6,4 km/h (2 Bft) 95,74 %
13.08.2019 18:42 15,0 C 14,4 C 14,4 C 86 % 1017,9 hPa 0,0 l/m 0 min 0 min 52 W/m 12,9 km/h (3 Bft) 93,62 %
13.08.2019 18:44 15,0 C 14,4 C 14,4 C 85 % 1018,0 hPa 0,0 l/m 0 min 0 min 53 W/m 6,4 km/h (2 Bft) 95,74 %
13.08.2019 18:46 15,0 C 14,4 C 14,4 C 85 % 1017,9 hPa 0,0 l/m 0 min 0 min 50 W/m 6,4 km/h (2 Bft) 93,62 %
13.08.2019 18:48 15,0 C 14,4 C 14,4 C 85 % 1017,9 hPa 0,0 l/m 0 min 0 min 46 W/m 6,4 km/h (2 Bft) 95,74 %
13.08.2019 18:50 15,0 C 14,4 C 14,4 C 85 % 1017,9 hPa 0,0 l/m 0 min 0 min 42 W/m 6,4 km/h (2 Bft) 93,62 %
13.08.2019 18:52 15,0 C 14,4 C 14,4 C 86 % 1017,9 hPa 0,0 l/m 0 min 0 min 40 W/m 9,7 km/h (2 Bft) 93,48 %
13.08.2019 18:54 15,0 C 14,4 C 14,4 C 85 % 1017,9 hPa 0,0 l/m 0 min 0 min 38 W/m 6,4 km/h (2 Bft) 95,74 %
13.08.2019 18:56 15,0 C 14,4 C 14,4 C 85 % 1018,0 hPa 0,0 l/m 0 min 0 min 35 W/m 6,4 km/h (2 Bft) 93,62 %
13.08.2019 18:58 15,0 C 14,4 C 14,4 C 85 % 1018,0 hPa 0,0 l/m 0 min 0 min 34 W/m 3,2 km/h (1 Bft) 93,62 %
13.08.2019 19:00 15,0 C 14,4 C 14,4 C 85 % 1018,0 hPa 0,0 l/m 0 min 0 min 38 W/m 6,4 km/h (2 Bft) 93,62 %
13.08.2019 19:02 15,0 C 14,4 C 14,4 C 85 % 1017,9 hPa 0,0 l/m 0 min 0 min 42 W/m 6,4 km/h (2 Bft) 95,65 %
13.08.2019 19:04 15,0 C 14,4 C 14,4 C 85 % 1017,9 hPa 0,0 l/m 0 min 0 min 51 W/m 3,2 km/h (1 Bft) 95,74 %
13.08.2019 19:06 15,1 C 15,0 C 14,4 C 86 % 1017,9 hPa 0,0 l/m 0 min 0 min 60 W/m 0,0 km/h (0 Bft) 95,74 %
13.08.2019 19:08 15,1 C 15,0 C 14,4 C 86 % 1017,9 hPa 0,0 l/m 0 min 0 min 72 W/m 6,4 km/h (2 Bft) 91,49 %
13.08.2019 19:10 15,1 C 15,0 C 14,4 C 86 % 1017,9 hPa 0,0 l/m 0 min 0 min 77 W/m 9,7 km/h (2 Bft) 95,74 %
13.08.2019 19:12 15,1 C 15,0 C 15,0 C 86 % 1017,9 hPa 0,0 l/m 0 min 0 min 76 W/m 6,4 km/h (2 Bft) 93,62 %
13.08.2019 19:14 15,1 C 14,4 C 14,4 C 86 % 1017,9 hPa 0,0 l/m 0 min 2 min 76 W/m 9,7 km/h (2 Bft) 97,83 %
13.08.2019 19:16 15,1 C 14,4 C 14,4 C 86 % 1017,9 hPa 0,0 l/m 0 min 0 min 76 W/m 6,4 km/h (2 Bft) 97,87 %
13.08.2019 19:18 15,1 C 15,0 C 15,0 C 86 % 1017,9 hPa 0,0 l/m 0 min 0 min 73 W/m 6,4 km/h (2 Bft) 97,87 %
13.08.2019 19:20 15,1 C 15,0 C 15,0 C 86 % 1017,9 hPa 0,0 l/m 0 min 0 min 74 W/m 6,4 km/h (2 Bft) 97,87 %
13.08.2019 19:22 15,1 C 15,0 C 15,0 C 86 % 1017,9 hPa 0,0 l/m 0 min 0 min 76 W/m 9,7 km/h (2 Bft) 97,87 %
13.08.2019 19:24 15,2 C 15,0 C 15,0 C 86 % 1018,0 hPa 0,0 l/m 0 min 0 min 86 W/m 9,7 km/h (2 Bft) 97,87 %
13.08.2019 19:26 15,2 C 15,6 C 15,0 C 86 % 1018,0 hPa 0,0 l/m 0 min 0 min 92 W/m 6,4 km/h (2 Bft) 97,83 %
13.08.2019 19:28 15,2 C 15,6 C 15,0 C 86 % 1018,0 hPa 0,0 l/m 0 min 0 min 103 W/m 9,7 km/h (2 Bft) 95,74 %
13.08.2019 19:30 15,2 C 15,6 C 15,0 C 86 % 1017,9 hPa 0,0 l/m 2 min 0 min 111 W/m 9,7 km/h (2 Bft) 95,74 %
13.08.2019 19:32 15,2 C 15,6 C 15,0 C 86 % 1017,9 hPa 0,0 l/m 2 min 0 min 106 W/m 6,4 km/h (2 Bft) 97,87 %
13.08.2019 19:34 15,2 C 15,6 C 15,0 C 86 % 1017,9 hPa 0,0 l/m 0 min 0 min 98 W/m 6,4 km/h (2 Bft) 97,87 %
13.08.2019 19:36 15,3 C 15,6 C 15,0 C 86 % 1017,9 hPa 0,0 l/m 0 min 0 min 95 W/m 9,7 km/h (2 Bft) 97,83 %
13.08.2019 19:38 15,3 C 15,6 C 15,0 C 86 % 1017,9 hPa 0,0 l/m 0 min 0 min 92 W/m 9,7 km/h (2 Bft) 100,00 %
13.08.2019 19:40 15,3 C 15,6 C 15,0 C 86 % 1017,9 hPa 0,0 l/m 0 min 0 min 83 W/m 9,7 km/h (2 Bft) 100,00 %
13.08.2019 19:42 15,3 C 15,6 C 15,0 C 86 % 1017,9 hPa 0,0 l/m 0 min 0 min 72 W/m 3,2 km/h (1 Bft) 100,00 %
13.08.2019 19:44 15,4 C 15,0 C 14,4 C 86 % 1017,8 hPa 0,0 l/m 0 min 0 min 65 W/m 12,9 km/h (3 Bft) 100,00 %
13.08.2019 19:46 15,4 C 15,0 C 14,4 C 86 % 1017,8 hPa 0,0 l/m 0 min 0 min 61 W/m 9,7 km/h (2 Bft) 97,87 %
13.08.2019 19:48 15,4 C 15,0 C 14,4 C 86 % 1017,8 hPa 0,0 l/m 0 min 0 min 54 W/m 9,7 km/h (2 Bft) 100,00 %
13.08.2019 19:50 15,4 C 15,0 C 14,4 C 86 % 1017,7 hPa 0,0 l/m 0 min 0 min 49 W/m 6,4 km/h (2 Bft) 100,00 %
13.08.2019 19:52 15,4 C 15,0 C 14,4 C 86 % 1017,8 hPa 0,0 l/m 0 min 0 min 45 W/m 6,4 km/h (2 Bft) 100,00 %
13.08.2019 19:54 15,4 C 15,0 C 14,4 C 86 % 1017,8 hPa 0,0 l/m 0 min 0 min 42 W/m 9,7 km/h (2 Bft) 100,00 %
13.08.2019 19:56 15,5 C 14,4 C 14,4 C 86 % 1017,8 hPa 0,0 l/m 0 min 0 min 42 W/m 3,2 km/h (1 Bft) 97,87 %
13.08.2019 19:58 15,5 C 14,4 C 14,4 C 86 % 1017,8 hPa 0,0 l/m 0 min 0 min 42 W/m 6,4 km/h (2 Bft) 95,74 %
13.08.2019 20:00 15,5 C 14,4 C 14,4 C 86 % 1017,8 hPa 0,0 l/m 0 min 0 min 42 W/m 6,4 km/h (2 Bft) 97,83 %
13.08.2019 20:02 15,5 C 14,4 C 13,9 C 86 % 1017,8 hPa 0,0 l/m 0 min 0 min 42 W/m 9,7 km/h (2 Bft) 97,87 %
13.08.2019 20:04 15,5 C 14,4 C 13,9 C 86 % 1017,8 hPa 0,0 l/m 0 min 0 min 40 W/m 9,7 km/h (2 Bft) 97,87 %
13.08.2019 20:06 15,5 C 14,4 C 13,9 C 86 % 1017,8 hPa 0,0 l/m 0 min 0 min 41 W/m 9,7 km/h (2 Bft) 97,87 %
13.08.2019 20:08 15,5 C 14,4 C 13,9 C 86 % 1017,8 hPa 0,0 l/m 0 min 0 min 42 W/m 6,4 km/h (2 Bft) 95,74 %
13.08.2019 20:10 15,4 C 14,4 C 13,9 C 86 % 1017,8 hPa 0,0 l/m 0 min 0 min 42 W/m 9,7 km/h (2 Bft) 95,74 %
13.08.2019 20:12 15,4 C 14,4 C 13,9 C 86 % 1017,7 hPa 0,0 l/m 0 min 0 min 39 W/m 6,4 km/h (2 Bft) 100,00 %
13.08.2019 20:14 15,4 C 14,4 C 13,9 C 86 % 1017,7 hPa 0,0 l/m 0 min 0 min 36 W/m 6,4 km/h (2 Bft) 100,00 %
13.08.2019 20:16 15,4 C 14,4 C 13,9 C 86 % 1017,8 hPa 0,0 l/m 0 min 0 min 35 W/m 6,4 km/h (2 Bft) 93,62 %
13.08.2019 20:18 15,4 C 14,4 C 13,9 C 86 % 1017,9 hPa 0,0 l/m 0 min 0 min 34 W/m 6,4 km/h (2 Bft) 95,74 %
13.08.2019 20:20 15,4 C 14,4 C 13,9 C 86 % 1017,8 hPa 0,0 l/m 0 min 0 min 33 W/m 6,4 km/h (2 Bft) 97,87 %
13.08.2019 20:22 15,4 C 14,4 C 13,9 C 86 % 1017,9 hPa 0,0 l/m 0 min 0 min 31 W/m 12,9 km/h (3 Bft) 97,87 %
13.08.2019 20:24 15,4 C 14,4 C 13,9 C 86 % 1017,8 hPa 0,0 l/m 0 min 0 min 28 W/m 9,7 km/h (2 Bft) 95,65 %
13.08.2019 20:26 15,3 C 14,4 C 13,9 C 86 % 1017,8 hPa 0,0 l/m 0 min 0 min 26 W/m 9,7 km/h (2 Bft) 97,87 %
13.08.2019 20:28 15,3 C 14,4 C 13,9 C 86 % 1017,9 hPa 0,0 l/m 0 min 0 min 24 W/m 6,4 km/h (2 Bft) 95,74 %
13.08.2019 20:30 15,3 C 13,9 C 13,9 C 86 % 1017,9 hPa 0,0 l/m 0 min 0 min 21 W/m 9,7 km/h (2 Bft) 95,74 %
13.08.2019 20:32 15,3 C 13,9 C 13,9 C 86 % 1018,0 hPa 0,0 l/m 0 min 0 min 19 W/m 6,4 km/h (2 Bft) 97,87 %
13.08.2019 20:34 15,3 C 13,9 C 13,9 C 86 % 1018,0 hPa 0,0 l/m 0 min 0 min 18 W/m 6,4 km/h (2 Bft) 97,87 %
13.08.2019 20:36 15,2 C 13,9 C 13,9 C 87 % 1018,0 hPa 0,0 l/m 0 min 0 min 16 W/m 6,4 km/h (2 Bft) 93,48 %
13.08.2019 20:38 15,2 C 13,9 C 13,9 C 87 % 1018,0 hPa 0,0 l/m 0 min 0 min 15 W/m 6,4 km/h (2 Bft) 97,87 %
13.08.2019 20:40 15,2 C 13,9 C 13,9 C 87 % 1018,0 hPa 0,0 l/m 0 min 0 min 14 W/m 9,7 km/h (2 Bft) 97,87 %
13.08.2019 20:42 15,2 C 13,9 C 13,9 C 87 % 1018,0 hPa 0,0 l/m 0 min 0 min 14 W/m 6,4 km/h (2 Bft) 95,74 %
13.08.2019 20:44 15,2 C 13,9 C 13,9 C 87 % 1018,0 hPa 0,0 l/m 0 min 0 min 14 W/m 9,7 km/h (2 Bft) 97,87 %
13.08.2019 20:46 15,2 C 13,9 C 13,9 C 87 % 1017,9 hPa 0,0 l/m 0 min 0 min 14 W/m 9,7 km/h (2 Bft) 95,74 %
13.08.2019 20:48 15,1 C 13,9 C 13,9 C 87 % 1017,9 hPa 0,0 l/m 0 min 0 min 13 W/m 9,7 km/h (2 Bft) 95,65 %
13.08.2019 20:50 15,1 C 13,9 C 13,9 C 87 % 1017,9 hPa 0,0 l/m 0 min 0 min 12 W/m 6,4 km/h (2 Bft) 97,87 %
13.08.2019 20:52 15,1 C 13,9 C 13,9 C 87 % 1017,9 hPa 0,0 l/m 0 min 0 min 11 W/m 6,4 km/h (2 Bft) 97,87 %
13.08.2019 20:54 15,1 C 13,9 C 13,9 C 87 % 1017,9 hPa 0,0 l/m 0 min 0 min 9 W/m 6,4 km/h (2 Bft) 97,87 %
13.08.2019 20:56 15,1 C 13,9 C 13,9 C 88 % 1018,0 hPa 0,0 l/m 0 min 0 min 7 W/m 6,4 km/h (2 Bft) 97,87 %
13.08.2019 20:58 15,0 C 13,9 C 13,9 C 88 % 1018,0 hPa 0,0 l/m 0 min 0 min 5 W/m 6,4 km/h (2 Bft) 97,83 %
13.08.2019 21:00 15,0 C 13,9 C 13,3 C 88 % 1018,0 hPa 0,0 l/m 0 min 0 min 5 W/m 6,4 km/h (2 Bft) 100,00 %
13.08.2019 21:02 15,0 C 13,9 C 13,3 C 88 % 1017,9 hPa 0,0 l/m 0 min 0 min 0 W/m 3,2 km/h (1 Bft) 100,00 %
13.08.2019 21:04 14,9 C 13,9 C 13,3 C 88 % 1018,0 hPa 0,0 l/m 0 min 0 min 0 W/m 6,4 km/h (2 Bft) 100,00 %
13.08.2019 21:06 14,9 C 13,3 C 13,3 C 88 % 1018,0 hPa 0,0 l/m 0 min 0 min 0 W/m 6,4 km/h (2 Bft) 100,00 %
13.08.2019 21:08 14,9 C 13,3 C 13,3 C 88 % 1018,0 hPa 0,0 l/m 0 min 0 min 0 W/m 9,7 km/h (2 Bft) 100,00 %
13.08.2019 21:10 14,9 C 13,3 C 13,3 C 88 % 1018,0 hPa 0,0 l/m 0 min 0 min 0 W/m 6,4 km/h (2 Bft) 100,00 %
13.08.2019 21:12 14,9 C 13,3 C 13,3 C 88 % 1018,0 hPa 0,0 l/m 0 min 0 min 0 W/m 3,2 km/h (1 Bft) 97,87 %
13.08.2019 21:14 14,8 C 13,3 C 13,3 C 88 % 1018,0 hPa 0,0 l/m 0 min 0 min 0 W/m 3,2 km/h (1 Bft) 97,87 %
13.08.2019 21:16 14,8 C 13,3 C 13,3 C 88 % 1017,9 hPa 0,0 l/m 0 min 0 min 0 W/m 3,2 km/h (1 Bft) 97,87 %
13.08.2019 21:18 14,8 C 13,3 C 13,3 C 88 % 1018,0 hPa 0,0 l/m 0 min 0 min 0 W/m 6,4 km/h (2 Bft) 95,74 %
13.08.2019 21:20 14,8 C 13,3 C 13,3 C 88 % 1018,1 hPa 0,0 l/m 0 min 0 min 0 W/m 9,7 km/h (2 Bft) 97,87 %
13.08.2019 21:22 14,8 C 13,3 C 13,3 C 88 % 1018,1 hPa 0,0 l/m 0 min 0 min 0 W/m 9,7 km/h (2 Bft) 95,65 %
13.08.2019 21:24 14,7 C 13,3 C 13,3 C 88 % 1018,1 hPa 0,0 l/m 0 min 0 min 0 W/m 9,7 km/h (2 Bft) 97,87 %
13.08.2019 21:26 14,7 C 13,3 C 13,3 C 88 % 1018,2 hPa 0,0 l/m 0 min 0 min 0 W/m 6,4 km/h (2 Bft) 97,87 %
13.08.2019 21:28 14,7 C 13,3 C 13,3 C 89 % 1018,2 hPa 0,0 l/m 0 min 0 min 0 W/m 6,4 km/h (2 Bft) 95,74 %
13.08.2019 21:30 14,7 C 13,3 C 13,3 C 89 % 1018,1 hPa 0,0 l/m 0 min 0 min 0 W/m 6,4 km/h (2 Bft) 97,87 %
13.08.2019 21:32 14,6 C 13,3 C 13,3 C 89 % 1018,2 hPa 0,0 l/m 0 min 0 min 0 W/m 3,2 km/h (1 Bft) 97,87 %
13.08.2019 21:34 14,6 C 13,3 C 13,3 C 89 % 1018,3 hPa 0,0 l/m 0 min 0 min 0 W/m 3,2 km/h (1 Bft) 97,83 %
13.08.2019 21:36 14,6 C 13,3 C 13,3 C 89 % 1018,2 hPa 0,0 l/m 0 min 0 min 0 W/m 6,4 km/h (2 Bft) 97,87 %
13.08.2019 21:38 14,6 C 13,3 C 13,3 C 89 % 1018,3 hPa 0,0 l/m 0 min 0 min 0 W/m 6,4 km/h (2 Bft) 97,87 %
13.08.2019 21:40 14,6 C 13,3 C 13,3 C 89 % 1018,3 hPa 0,0 l/m 0 min 0 min 0 W/m 6,4 km/h (2 Bft) 97,87 %
13.08.2019 21:42 14,5 C 13,3 C 13,3 C 89 % 1018,3 hPa 0,0 l/m 0 min 0 min 0 W/m 3,2 km/h (1 Bft) 97,87 %
13.08.2019 21:44 14,5 C 13,3 C 13,3 C 89 % 1018,2 hPa 0,0 l/m 0 min 0 min 0 W/m 6,4 km/h (2 Bft) 97,83 %
13.08.2019 21:46 14,5 C 13,3 C 13,3 C 89 % 1018,2 hPa 0,0 l/m 0 min 0 min 0 W/m 0,0 km/h (0 Bft) 95,74 %
13.08.2019 21:48 14,4 C 13,3 C 13,3 C 89 % 1018,1 hPa 0,0 l/m 0 min 0 min 0 W/m 0,0 km/h (0 Bft) 97,87 %
13.08.2019 21:50 14,4 C 13,3 C 13,3 C 89 % 1018,1 hPa 0,0 l/m 0 min 0 min 0 W/m 0,0 km/h (0 Bft) 97,87 %
13.08.2019 21:52 14,4 C 13,3 C 13,3 C 89 % 1018,2 hPa 0,0 l/m 0 min 0 min 0 W/m 0,0 km/h (0 Bft) 95,74 %
13.08.2019 21:54 14,4 C 13,3 C 12,8 C 89 % 1018,2 hPa 0,0 l/m 0 min 0 min 0 W/m 0,0 km/h (0 Bft) 97,87 %
13.08.2019 21:56 14,4 C 13,3 C 13,3 C 89 % 1018,2 hPa 0,0 l/m 0 min 0 min 0 W/m 0,0 km/h (0 Bft) 97,83 %
13.08.2019 21:58 14,4 C 13,3 C 13,3 C 89 % 1018,2 hPa 0,0 l/m 0 min 0 min 0 W/m 0,0 km/h (0 Bft) 97,87 %
13.08.2019 22:00 14,3 C 13,3 C 13,3 C 90 % 1018,2 hPa 0,0 l/m 0 min 0 min 0 W/m 0,0 km/h (0 Bft) 97,87 %
13.08.2019 22:02 14,3 C 13,3 C 13,3 C 90 % 1018,2 hPa 0,0 l/m 0 min 0 min 0 W/m 0,0 km/h (0 Bft) 97,87 %
13.08.2019 22:04 14,3 C 13,3 C 13,3 C 90 % 1018,2 hPa 0,0 l/m 0 min 0 min 0 W/m 0,0 km/h (0 Bft) 100,00 %
13.08.2019 22:06 14,3 C 13,3 C 13,3 C 90 % 1018,2 hPa 0,0 l/m 0 min 0 min 0 W/m 0,0 km/h (0 Bft) 100,00 %
13.08.2019 22:08 14,3 C 13,3 C 13,3 C 90 % 1018,3 hPa 0,0 l/m 0 min 0 min 0 W/m 0,0 km/h (0 Bft) 100,00 %
13.08.2019 22:10 14,3 C 13,3 C 13,3 C 90 % 1018,3 hPa 0,0 l/m 0 min 0 min 0 W/m 0,0 km/h (0 Bft) 100,00 %
13.08.2019 22:12 14,2 C 13,3 C 13,3 C 90 % 1018,3 hPa 0,0 l/m 0 min 0 min 0 W/m 0,0 km/h (0 Bft) 100,00 %
13.08.2019 22:14 14,2 C 13,3 C 13,3 C 90 % 1018,3 hPa 0,0 l/m 0 min 0 min 0 W/m 0,0 km/h (0 Bft) 97,87 %
13.08.2019 22:16 14,2 C 13,3 C 13,3 C 90 % 1018,2 hPa 0,0 l/m 0 min 0 min 0 W/m 0,0 km/h (0 Bft) 95,74 %
13.08.2019 22:18 14,2 C 13,3 C 13,3 C 90 % 1018,2 hPa 0,0 l/m 0 min 0 min 0 W/m 0,0 km/h (0 Bft) 97,87 %
13.08.2019 22:20 14,2 C 13,9 C 13,3 C 90 % 1018,2 hPa 0,0 l/m 0 min 0 min 0 W/m 0,0 km/h (0 Bft) 97,83 %
13.08.2019 22:22 14,2 C 13,9 C 13,3 C 90 % 1018,2 hPa 0,0 l/m 0 min 0 min 0 W/m 0,0 km/h (0 Bft) 97,87 %
13.08.2019 22:24 14,2 C 13,9 C 13,3 C 90 % 1018,2 hPa 0,0 l/m 0 min 0 min 0 W/m 0,0 km/h (0 Bft) 95,74 %
13.08.2019 22:26 14,2 C 13,3 C 13,3 C 90 % 1018,2 hPa 0,0 l/m 0 min 0 min 0 W/m 0,0 km/h (0 Bft) 97,87 %
13.08.2019 22:28 14,2 C 13,3 C 13,3 C 90 % 1018,2 hPa 0,0 l/m 0 min 0 min 0 W/m 6,4 km/h (2 Bft) 97,87 %
13.08.2019 22:30 14,2 C 13,3 C 13,3 C 90 % 1018,2 hPa 0,0 l/m 0 min 0 min 0 W/m 6,4 km/h (2 Bft) 97,87 %
13.08.2019 22:32 14,2 C 13,3 C 13,3 C 89 % 1018,2 hPa 0,0 l/m 0 min 0 min 0 W/m 3,2 km/h (1 Bft) 95,65 %
13.08.2019 22:34 14,2 C 13,3 C 13,3 C 89 % 1018,2 hPa 0,0 l/m 0 min 0 min 0 W/m 9,7 km/h (2 Bft) 97,87 %
13.08.2019 22:36 14,2 C 13,3 C 13,3 C 89 % 1018,2 hPa 0,0 l/m 0 min 0 min 0 W/m 0,0 km/h (0 Bft) 95,74 %
13.08.2019 22:38 14,2 C 13,3 C 13,3 C 89 % 1018,2 hPa 0,0 l/m 0 min 0 min 0 W/m 3,2 km/h (1 Bft) 95,74 %
13.08.2019 22:40 14,2 C 13,3 C 13,3 C 89 % 1018,2 hPa 0,0 l/m 0 min 0 min 0 W/m 0,0 km/h (0 Bft) 97,87 %
13.08.2019 22:42 14,2 C 13,3 C 13,3 C 89 % 1018,2 hPa 0,0 l/m 0 min 0 min 0 W/m 3,2 km/h (1 Bft) 97,87 %
13.08.2019 22:44 14,2 C 13,3 C 13,3 C 89 % 1018,3 hPa 0,0 l/m 0 min 0 min 0 W/m 6,4 km/h (2 Bft) 95,65 %
13.08.2019 22:46 14,2 C 13,3 C 13,3 C 89 % 1018,3 hPa 0,0 l/m 0 min 0 min 0 W/m 6,4 km/h (2 Bft) 97,87 %
13.08.2019 22:48 14,2 C 13,3 C 12,8 C 89 % 1018,2 hPa 0,0 l/m 0 min 0 min 0 W/m 3,2 km/h (1 Bft) 97,87 %
13.08.2019 22:50 14,2 C 13,3 C 12,8 C 89 % 1018,3 hPa 0,0 l/m 0 min 0 min 0 W/m 0,0 km/h (0 Bft) 97,87 %
13.08.2019 22:52 14,2 C 13,3 C 12,8 C 89 % 1018,3 hPa 0,0 l/m 0 min 0 min 0 W/m 0,0 km/h (0 Bft) 97,87 %
13.08.2019 22:54 14,2 C 13,3 C 12,8 C 89 % 1018,2 hPa 0,0 l/m 0 min 0 min 0 W/m 0,0 km/h (0 Bft) 95,74 %
13.08.2019 22:56 14,2 C 12,8 C 12,8 C 89 % 1018,3 hPa 0,0 l/m 0 min 0 min 0 W/m 0,0 km/h (0 Bft) 95,65 %
13.08.2019 22:58 14,2 C 12,8 C 12,8 C 89 % 1018,3 hPa 0,0 l/m 0 min 0 min 0 W/m 0,0 km/h (0 Bft) 95,74 %
13.08.2019 23:00 14,2 C 12,8 C 12,8 C 89 % 1018,2 hPa 0,0 l/m 0 min 0 min 0 W/m 0,0 km/h (0 Bft) 93,62 %
13.08.2019 23:02 14,1 C 12,8 C 12,8 C 89 % 1018,3 hPa 0,0 l/m 0 min 0 min 0 W/m 0,0 km/h (0 Bft) 93,62 %
13.08.2019 23:04 14,2 C 12,8 C 12,8 C 89 % 1018,3 hPa 0,0 l/m 0 min 0 min 0 W/m 3,2 km/h (1 Bft) 91,49 %
13.08.2019 23:06 14,1 C 12,8 C 12,8 C 89 % 1018,3 hPa 0,0 l/m 0 min 0 min 0 W/m 3,2 km/h (1 Bft) 97,83 %
13.08.2019 23:08 14,1 C 12,8 C 12,8 C 89 % 1018,3 hPa 0,0 l/m 0 min 0 min 0 W/m 0,0 km/h (0 Bft) 95,74 %
13.08.2019 23:10 14,1 C 12,8 C 12,8 C 89 % 1018,3 hPa 0,0 l/m 0 min 0 min 0 W/m 0,0 km/h (0 Bft) 93,62 %
13.08.2019 23:12 14,1 C 12,8 C 12,8 C 89 % 1018,3 hPa 0,0 l/m 0 min 0 min 0 W/m 0,0 km/h (0 Bft) 95,74 %
13.08.2019 23:14 14,0 C 12,8 C 12,2 C 89 % 1018,3 hPa 0,0 l/m 0 min 0 min 0 W/m 0,0 km/h (0 Bft) 95,74 %
13.08.2019 23:16 14,0 C 12,8 C 12,2 C 88 % 1018,4 hPa 0,0 l/m 0 min 0 min 0 W/m 6,4 km/h (2 Bft) 95,74 %
13.08.2019 23:18 13,9 C 12,8 C 12,2 C 89 % 1018,4 hPa 0,0 l/m 0 min 0 min 0 W/m 3,2 km/h (1 Bft) 95,65 %
13.08.2019 23:20 13,9 C 12,8 C 12,2 C 88 % 1018,4 hPa 0,0 l/m 0 min 0 min 0 W/m 6,4 km/h (2 Bft) 97,87 %
13.08.2019 23:22 13,9 C 12,8 C 12,2 C 88 % 1018,4 hPa 0,0 l/m 0 min 0 min 0 W/m 9,7 km/h (2 Bft) 97,87 %
13.08.2019 23:24 13,9 C 12,8 C 12,2 C 88 % 1018,5 hPa 0,0 l/m 0 min 0 min 0 W/m 3,2 km/h (1 Bft) 95,74 %
13.08.2019 23:26 13,9 C 12,8 C 12,8 C 89 % 1018,4 hPa 0,0 l/m 0 min 0 min 0 W/m 3,2 km/h (1 Bft) 95,74 %
13.08.2019 23:28 13,9 C 12,8 C 12,8 C 89 % 1018,4 hPa 0,0 l/m 0 min 0 min 0 W/m 6,4 km/h (2 Bft) 97,87 %
13.08.2019 23:30 13,8 C 12,2 C 12,2 C 89 % 1018,4 hPa 0,0 l/m 0 min 0 min 0 W/m 3,2 km/h (1 Bft) 97,83 %
13.08.2019 23:32 13,8 C 12,2 C 12,2 C 89 % 1018,5 hPa 0,0 l/m 0 min 0 min 0 W/m 0,0 km/h (0 Bft) 95,74 %
13.08.2019 23:34 13,8 C 12,2 C 12,2 C 89 % 1018,4 hPa 0,0 l/m 0 min 0 min 0 W/m 3,2 km/h (1 Bft) 95,74 %
13.08.2019 23:36 13,8 C 12,2 C 12,2 C 89 % 1018,4 hPa 0,0 l/m 0 min 0 min 0 W/m 3,2 km/h (1 Bft) 97,87 %
13.08.2019 23:38 13,8 C 12,2 C 12,2 C 89 % 1018,4 hPa 0,0 l/m 0 min 0 min 0 W/m 0,0 km/h (0 Bft) 95,74 %
13.08.2019 23:40 13,8 C 12,2 C 12,2 C 89 % 1018,4 hPa 0,0 l/m 0 min 0 min 0 W/m 0,0 km/h (0 Bft) 97,87 %
13.08.2019 23:42 13,7 C 12,2 C 12,2 C 89 % 1018,4 hPa 0,0 l/m 0 min 0 min 0 W/m 0,0 km/h (0 Bft) 97,83 %
13.08.2019 23:44 13,7 C 12,2 C 12,2 C 89 % 1018,3 hPa 0,0 l/m 0 min 0 min 0 W/m 3,2 km/h (1 Bft) 100,00 %
13.08.2019 23:46 13,7 C 12,2 C 12,2 C 89 % 1018,4 hPa 0,0 l/m 0 min 0 min 0 W/m 3,2 km/h (1 Bft) 100,00 %
13.08.2019 23:48 13,7 C 12,2 C 12,8 C 89 % 1018,4 hPa 0,0 l/m 0 min 0 min 0 W/m 6,4 km/h (2 Bft) 100,00 %
13.08.2019 23:50 13,7 C 12,2 C 12,2 C 89 % 1018,3 hPa 0,0 l/m 0 min 0 min 0 W/m 3,2 km/h (1 Bft) 97,87 %
13.08.2019 23:52 13,6 C 12,2 C 12,2 C 89 % 1018,3 hPa 0,0 l/m 0 min 0 min 0 W/m 3,2 km/h (1 Bft) 100,00 %
13.08.2019 23:54 13,6 C 12,2 C 12,2 C 89 % 1018,4 hPa 0,0 l/m 0 min 0 min 0 W/m 3,2 km/h (1 Bft) 100,00 %
13.08.2019 23:56 13,6 C 12,2 C 12,2 C 89 % 1018,4 hPa 0,0 l/m 0 min 0 min 0 W/m 6,4 km/h (2 Bft) 100,00 %
13.08.2019 23:58 13,5 C 12,2 C 12,2 C 89 % 1018,3 hPa 0,0 l/m 0 min 0 min 0 W/m 3,2 km/h (1 Bft) 100,00 %
_ Min-Zeit 05:30 00:00 05:20 13:06 00:58 - - - - 00:02 00:02
Minimum _ 12,7 C 11,7 C 11,1 C 53 % 1014,9 hPa - - - - 0,0 km/h (0 Bft) 22,22 %
_ Max-Zeit 13:02 12:46 14:00 00:14 23:24 17:10 12:08 01:00 14:02 14:38 00:00
Maximum _ 21,7 C 26,7 C 24,4 C 97 % 1018,5 hPa 0,2 l/m 4 min 2 min 1107 W/m 35,4 km/h
O-SO (5 Bft)
100,00 %
Durchschnitt _ 15,6 C 15,9 C 15,3 C 84 % 1017,0 hPa #0,2 l/m #4:58 h #1:08 h 288 W/m 8,8 km/h (2 Bft) 97,29 %
© 2019 W. Hausmann